<?xml version="1.0" encoding="UTF-8" standalone="no" ?>
<gpx xmlns="http://www.topografix.com/GPX/1/1" creator="https://MapMagic.app" xmlns:xsi="http://www.w3.org/2001/XMLSchema-instance" xsi:schemaLocation="http://www.topografix.com/GPX/1/1 http://www.topografix.com/GPX/1/1/gpx.xsd" version="1.1">
	<wpt lat="56.238354" lon="43.461748">
		<name>Старт</name>
		<sym>Pin, Blue</sym>
		<type>Generic</type>
	</wpt>
	<wpt lat="56.161717" lon="42.849829">
		<name>КП1 Суворощь (туда)</name>
		<sym>Pin, Blue</sym>
		<type>Generic</type>
	</wpt>
	<wpt lat="55.971724" lon="43.062759">
		<name>КП2 Фотоотметка «Павлово, понтонный мост»</name>
		<sym>Pin, Blue</sym>
		<type>Generic</type>
	</wpt>
	<wpt lat="56.161176" lon="42.849142">
		<name>КП3 Суворощь (обратно)</name>
		<sym>Pin, Blue</sym>
		<type>Generic</type>
	</wpt>
	<wpt lat="56.228798" lon="43.453991">
		<name>Финиш, 203,5 км</name>
		<sym>Pin, Blue</sym>
		<type>Generic</type>
	</wpt>
	<trk>
		<name>brevetnn-2026-200-4 «Феликс Эдмундович» 200 км</name>
		<desc>Дзержинск – Пыра – Гороховец – Павлово – Гороховец – Ильино – Володарск – Решетиха – Дзержинск</desc>
		<trkseg>
			<trkpt lat="56.238480" lon="43.462370"><ele>91.4</ele><time>2024-08-29T17:50:16Z</time></trkpt>
			<trkpt lat="56.239100" lon="43.462210"><ele>93.0</ele><time>2024-08-29T17:50:45Z</time></trkpt>
			<trkpt lat="56.239310" lon="43.461940"><ele>93.7</ele><time>2024-08-29T17:51:04Z</time></trkpt>
			<trkpt lat="56.239400" lon="43.461770"><ele>94.1</ele><time>2024-08-29T17:51:14Z</time></trkpt>
			<trkpt lat="56.239440" lon="43.461610"><ele>94.3</ele><time>2024-08-29T17:51:24Z</time></trkpt>
			<trkpt lat="56.248310" lon="43.464490"><ele>97.6</ele><time>2024-08-29T17:53:48Z</time></trkpt>
			<trkpt lat="56.257170" lon="43.467420"><ele>94.8</ele><time>2024-08-29T17:55:44Z</time></trkpt>
			<trkpt lat="56.257360" lon="43.467620"><ele>94.7</ele><time>2024-08-29T17:55:54Z</time></trkpt>
			<trkpt lat="56.257510" lon="43.467840"><ele>94.6</ele><time>2024-08-29T17:56:03Z</time></trkpt>
			<trkpt lat="56.257550" lon="43.468000"><ele>94.6</ele><time>2024-08-29T17:56:13Z</time></trkpt>
			<trkpt lat="56.257720" lon="43.468210"><ele>94.5</ele><time>2024-08-29T17:56:32Z</time></trkpt>
			<trkpt lat="56.257830" lon="43.468230"><ele>94.5</ele><time>2024-08-29T17:56:42Z</time></trkpt>
			<trkpt lat="56.257930" lon="43.468200"><ele>94.4</ele><time>2024-08-29T17:56:52Z</time></trkpt>
			<trkpt lat="56.258010" lon="43.468120"><ele>94.4</ele><time>2024-08-29T17:57:01Z</time></trkpt>
			<trkpt lat="56.258400" lon="43.467880"><ele>94.2</ele><time>2024-08-29T17:57:11Z</time></trkpt>
			<trkpt lat="56.258670" lon="43.467840"><ele>94.1</ele><time>2024-08-29T17:57:30Z</time></trkpt>
			<trkpt lat="56.260480" lon="43.468310"><ele>94.1</ele><time>2024-08-29T17:57:40Z</time></trkpt>
			<trkpt lat="56.263350" lon="43.469130"><ele>96.0</ele><time>2024-08-29T17:58:18Z</time></trkpt>
			<trkpt lat="56.264590" lon="43.469650"><ele>95.9</ele><time>2024-08-29T17:58:38Z</time></trkpt>
			<trkpt lat="56.268480" lon="43.471730"><ele>98.5</ele><time>2024-08-29T17:58:57Z</time></trkpt>
			<trkpt lat="56.269380" lon="43.472260"><ele>99.2</ele><time>2024-08-29T17:59:07Z</time></trkpt>
			<trkpt lat="56.272340" lon="43.473850"><ele>100.3</ele><time>2024-08-29T17:59:16Z</time></trkpt>
			<trkpt lat="56.272920" lon="43.474130"><ele>99.8</ele><time>2024-08-29T17:59:26Z</time></trkpt>
			<trkpt lat="56.274380" lon="43.474640"><ele>98.6</ele><time>2024-08-29T17:59:45Z</time></trkpt>
			<trkpt lat="56.275330" lon="43.474880"><ele>98.1</ele><time>2024-08-29T17:59:55Z</time></trkpt>
			<trkpt lat="56.276080" lon="43.475020"><ele>97.9</ele><time>2024-08-29T18:00:05Z</time></trkpt>
			<trkpt lat="56.277100" lon="43.475110"><ele>97.9</ele><time>2024-08-29T18:00:14Z</time></trkpt>
			<trkpt lat="56.279650" lon="43.475230"><ele>98.3</ele><time>2024-08-29T18:00:33Z</time></trkpt>
			<trkpt lat="56.282390" lon="43.475400"><ele>97.4</ele><time>2024-08-29T18:00:43Z</time></trkpt>
			<trkpt lat="56.284210" lon="43.475560"><ele>96.8</ele><time>2024-08-29T18:01:02Z</time></trkpt>
			<trkpt lat="56.285650" lon="43.475650"><ele>96.7</ele><time>2024-08-29T18:01:12Z</time></trkpt>
			<trkpt lat="56.290410" lon="43.475890"><ele>97.6</ele><time>2024-08-29T18:01:51Z</time></trkpt>
			<trkpt lat="56.292360" lon="43.476020"><ele>96.0</ele><time>2024-08-29T18:02:00Z</time></trkpt>
			<trkpt lat="56.294880" lon="43.476240"><ele>93.4</ele><time>2024-08-29T18:02:35Z</time></trkpt>
			<trkpt lat="56.296500" lon="43.476520"><ele>93.7</ele><time>2024-08-29T18:02:50Z</time></trkpt>
			<trkpt lat="56.297000" lon="43.476720"><ele>93.7</ele><time>2024-08-29T18:02:55Z</time></trkpt>
			<trkpt lat="56.297390" lon="43.476980"><ele>93.7</ele><time>2024-08-29T18:03:01Z</time></trkpt>
			<trkpt lat="56.297760" lon="43.477300"><ele>93.9</ele><time>2024-08-29T18:03:06Z</time></trkpt>
			<trkpt lat="56.298040" lon="43.477620"><ele>94.5</ele><time>2024-08-29T18:03:11Z</time></trkpt>
			<trkpt lat="56.298240" lon="43.477910"><ele>95.0</ele><time>2024-08-29T18:03:16Z</time></trkpt>
			<trkpt lat="56.298330" lon="43.478130"><ele>95.3</ele><time>2024-08-29T18:03:21Z</time></trkpt>
			<trkpt lat="56.298410" lon="43.478620"><ele>95.8</ele><time>2024-08-29T18:03:26Z</time></trkpt>
			<trkpt lat="56.298440" lon="43.479400"><ele>96.6</ele><time>2024-08-29T18:03:31Z</time></trkpt>
			<trkpt lat="56.298550" lon="43.479370"><ele>96.8</ele><time>2024-08-29T18:03:54Z</time></trkpt>
			<trkpt lat="56.298470" lon="43.476920"><ele>95.0</ele><time>2024-08-29T18:04:29Z</time></trkpt>
			<trkpt lat="56.297560" lon="43.455120"><ele>97.0</ele><time>2024-08-29T18:05:38Z</time></trkpt>
			<trkpt lat="56.297370" lon="43.451440"><ele>97.0</ele><time>2024-08-29T18:06:06Z</time></trkpt>
			<trkpt lat="56.297290" lon="43.448560"><ele>97.7</ele><time>2024-08-29T18:06:34Z</time></trkpt>
			<trkpt lat="56.296260" lon="43.423200"><ele>99.6</ele><time>2024-08-29T18:07:29Z</time></trkpt>
			<trkpt lat="56.292940" lon="43.343820"><ele>97.4</ele><time>2024-08-29T18:10:30Z</time></trkpt>
			<trkpt lat="56.289280" lon="43.258650"><ele>93.8</ele><time>2024-08-29T18:12:49Z</time></trkpt>
			<trkpt lat="56.286580" lon="43.198000"><ele>88.6</ele><time>2024-08-29T18:14:40Z</time></trkpt>
			<trkpt lat="56.284540" lon="43.154010"><ele>80.7</ele><time>2024-08-29T18:15:22Z</time></trkpt>
			<trkpt lat="56.279610" lon="43.044840"><ele>116.8</ele><time>2024-08-29T18:17:41Z</time></trkpt>
			<trkpt lat="56.277070" lon="42.989850"><ele>89.3</ele><time>2024-08-29T18:20:42Z</time></trkpt>
			<trkpt lat="56.276510" lon="42.978510"><ele>94.8</ele><time>2024-08-29T18:21:10Z</time></trkpt>
			<trkpt lat="56.276370" lon="42.976140"><ele>96.2</ele><time>2024-08-29T18:21:23Z</time></trkpt>
			<trkpt lat="56.276260" lon="42.974900"><ele>97.5</ele><time>2024-08-29T18:21:37Z</time></trkpt>
			<trkpt lat="56.275970" lon="42.972550"><ele>99.0</ele><time>2024-08-29T18:22:05Z</time></trkpt>
			<trkpt lat="56.275750" lon="42.971260"><ele>98.6</ele><time>2024-08-29T18:22:19Z</time></trkpt>
			<trkpt lat="56.275270" lon="42.969110"><ele>98.2</ele><time>2024-08-29T18:22:47Z</time></trkpt>
			<trkpt lat="56.274420" lon="42.965780"><ele>100.5</ele><time>2024-08-29T18:23:29Z</time></trkpt>
			<trkpt lat="56.250810" lon="42.878550"><ele>81.3</ele><time>2024-08-29T18:29:16Z</time></trkpt>
			<trkpt lat="56.229500" lon="42.800020"><ele>78.2</ele><time>2024-08-29T18:33:12Z</time></trkpt>
			<trkpt lat="56.228560" lon="42.796800"><ele>77.3</ele><time>2024-08-29T18:33:54Z</time></trkpt>
			<trkpt lat="56.227090" lon="42.792190"><ele>75.4</ele><time>2024-08-29T18:34:22Z</time></trkpt>
			<trkpt lat="56.223900" lon="42.782430"><ele>76.5</ele><time>2024-08-29T18:34:36Z</time></trkpt>
			<trkpt lat="56.223110" lon="42.779880"><ele>74.4</ele><time>2024-08-29T18:34:50Z</time></trkpt>
			<trkpt lat="56.221360" lon="42.774570"><ele>77.1</ele><time>2024-08-29T18:35:17Z</time></trkpt>
			<trkpt lat="56.218710" lon="42.766760"><ele>76.7</ele><time>2024-08-29T18:35:45Z</time></trkpt>
			<trkpt lat="56.215530" lon="42.757030"><ele>74.1</ele><time>2024-08-29T18:35:59Z</time></trkpt>
			<trkpt lat="56.210460" lon="42.741390"><ele>75.1</ele><time>2024-08-29T18:36:27Z</time></trkpt>
			<trkpt lat="56.202920" lon="42.717860"><ele>76.4</ele><time>2024-08-29T18:37:16Z</time></trkpt>
			<trkpt lat="56.200730" lon="42.711250"><ele>75.3</ele><time>2024-08-29T18:37:38Z</time></trkpt>
			<trkpt lat="56.198010" lon="42.702550"><ele>79.7</ele><time>2024-08-29T18:38:06Z</time></trkpt>
			<trkpt lat="56.196790" lon="42.703820"><ele>81.7</ele><time>2024-08-29T18:38:25Z</time></trkpt>
			<trkpt lat="56.196470" lon="42.704190"><ele>82.2</ele><time>2024-08-29T18:38:31Z</time></trkpt>
			<trkpt lat="56.196140" lon="42.704690"><ele>82.8</ele><time>2024-08-29T18:38:34Z</time></trkpt>
			<trkpt lat="56.195960" lon="42.705050"><ele>83.1</ele><time>2024-08-29T18:38:37Z</time></trkpt>
			<trkpt lat="56.195710" lon="42.705660"><ele>83.7</ele><time>2024-08-29T18:38:42Z</time></trkpt>
			<trkpt lat="56.195620" lon="42.706060"><ele>84.0</ele><time>2024-08-29T18:38:48Z</time></trkpt>
			<trkpt lat="56.195440" lon="42.709320"><ele>85.5</ele><time>2024-08-29T18:39:06Z</time></trkpt>
			<trkpt lat="56.194530" lon="42.728570"><ele>82.8</ele><time>2024-08-29T18:39:54Z</time></trkpt>
			<trkpt lat="56.194380" lon="42.733020"><ele>81.5</ele><time>2024-08-29T18:40:32Z</time></trkpt>
			<trkpt lat="56.194340" lon="42.733510"><ele>81.3</ele><time>2024-08-29T18:40:38Z</time></trkpt>
			<trkpt lat="56.190320" lon="42.749980"><ele>79.4</ele><time>2024-08-29T18:41:29Z</time></trkpt>
			<trkpt lat="56.189600" lon="42.752600"><ele>76.3</ele><time>2024-08-29T18:41:42Z</time></trkpt>
			<trkpt lat="56.189300" lon="42.753920"><ele>77.9</ele><time>2024-08-29T18:41:54Z</time></trkpt>
			<trkpt lat="56.189090" lon="42.755410"><ele>79.5</ele><time>2024-08-29T18:42:07Z</time></trkpt>
			<trkpt lat="56.188960" lon="42.756840"><ele>78.9</ele><time>2024-08-29T18:42:13Z</time></trkpt>
			<trkpt lat="56.188490" lon="42.763450"><ele>80.0</ele><time>2024-08-29T18:42:32Z</time></trkpt>
			<trkpt lat="56.188310" lon="42.764480"><ele>80.0</ele><time>2024-08-29T18:42:45Z</time></trkpt>
			<trkpt lat="56.185880" lon="42.772120"><ele>81.4</ele><time>2024-08-29T18:42:57Z</time></trkpt>
			<trkpt lat="56.185360" lon="42.773630"><ele>81.4</ele><time>2024-08-29T18:43:04Z</time></trkpt>
			<trkpt lat="56.180730" lon="42.788030"><ele>82.1</ele><time>2024-08-29T18:43:16Z</time></trkpt>
			<trkpt lat="56.180420" lon="42.788870"><ele>82.3</ele><time>2024-08-29T18:43:29Z</time></trkpt>
			<trkpt lat="56.180190" lon="42.789320"><ele>82.5</ele><time>2024-08-29T18:43:41Z</time></trkpt>
			<trkpt lat="56.176950" lon="42.794180"><ele>80.4</ele><time>2024-08-29T18:43:48Z</time></trkpt>
			<trkpt lat="56.176280" lon="42.795010"><ele>80.9</ele><time>2024-08-29T18:43:54Z</time></trkpt>
			<trkpt lat="56.175850" lon="42.795440"><ele>81.4</ele><time>2024-08-29T18:44:00Z</time></trkpt>
			<trkpt lat="56.175060" lon="42.796100"><ele>82.4</ele><time>2024-08-29T18:44:13Z</time></trkpt>
			<trkpt lat="56.174860" lon="42.796310"><ele>83.0</ele><time>2024-08-29T18:44:19Z</time></trkpt>
			<trkpt lat="56.174720" lon="42.796570"><ele>83.4</ele><time>2024-08-29T18:44:26Z</time></trkpt>
			<trkpt lat="56.174630" lon="42.796890"><ele>83.9</ele><time>2024-08-29T18:44:32Z</time></trkpt>
			<trkpt lat="56.173010" lon="42.804490"><ele>87.2</ele><time>2024-08-29T18:44:45Z</time></trkpt>
			<trkpt lat="56.172820" lon="42.805030"><ele>87.1</ele><time>2024-08-29T18:44:51Z</time></trkpt>
			<trkpt lat="56.172580" lon="42.805560"><ele>87.0</ele><time>2024-08-29T18:44:57Z</time></trkpt>
			<trkpt lat="56.163940" lon="42.819400"><ele>74.7</ele><time>2024-08-29T18:45:16Z</time></trkpt>
			<trkpt lat="56.163760" lon="42.819770"><ele>74.4</ele><time>2024-08-29T18:45:22Z</time></trkpt>
			<trkpt lat="56.163680" lon="42.820510"><ele>74.0</ele><time>2024-08-29T18:45:29Z</time></trkpt>
			<trkpt lat="56.163690" lon="42.821280"><ele>74.1</ele><time>2024-08-29T18:45:35Z</time></trkpt>
			<trkpt lat="56.164200" lon="42.829070"><ele>75.2</ele><time>2024-08-29T18:45:41Z</time></trkpt>
			<trkpt lat="56.164190" lon="42.829250"><ele>75.3</ele><time>2024-08-29T18:45:48Z</time></trkpt>
			<trkpt lat="56.164130" lon="42.829480"><ele>75.3</ele><time>2024-08-29T18:45:54Z</time></trkpt>
			<trkpt lat="56.163350" lon="42.830660"><ele>75.6</ele><time>2024-08-29T18:46:07Z</time></trkpt>
			<trkpt lat="56.163210" lon="42.830720"><ele>75.6</ele><time>2024-08-29T18:46:19Z</time></trkpt>
			<trkpt lat="56.163020" lon="42.830670"><ele>75.7</ele><time>2024-08-29T18:46:38Z</time></trkpt>
			<trkpt lat="56.162870" lon="42.830440"><ele>75.8</ele><time>2024-08-29T18:46:57Z</time></trkpt>
			<trkpt lat="56.161440" lon="42.826670"><ele>77.0</ele><time>2024-08-29T18:47:03Z</time></trkpt>
			<trkpt lat="56.161250" lon="42.827160"><ele>76.8</ele><time>2024-08-29T18:47:10Z</time></trkpt>
			<trkpt lat="56.160510" lon="42.829850"><ele>75.9</ele><time>2024-08-29T18:47:16Z</time></trkpt>
			<trkpt lat="56.160400" lon="42.830730"><ele>75.6</ele><time>2024-08-29T18:47:22Z</time></trkpt>
			<trkpt lat="56.160400" lon="42.831840"><ele>75.2</ele><time>2024-08-29T18:47:35Z</time></trkpt>
			<trkpt lat="56.160480" lon="42.833040"><ele>74.9</ele><time>2024-08-29T18:47:41Z</time></trkpt>
			<trkpt lat="56.161430" lon="42.839230"><ele>73.9</ele><time>2024-08-29T18:47:48Z</time></trkpt>
			<trkpt lat="56.161550" lon="42.840220"><ele>74.0</ele><time>2024-08-29T18:47:54Z</time></trkpt>
			<trkpt lat="56.161600" lon="42.841530"><ele>74.1</ele><time>2024-08-29T18:48:00Z</time></trkpt>
			<trkpt lat="56.161590" lon="42.843710"><ele>74.7</ele><time>2024-08-29T18:48:06Z</time></trkpt>
			<trkpt lat="56.161560" lon="42.844150"><ele>74.8</ele><time>2024-08-29T18:48:13Z</time></trkpt>
			<trkpt lat="56.161810" lon="42.844350"><ele>75.0</ele><time>2024-08-29T18:48:19Z</time></trkpt>
			<trkpt lat="56.161850" lon="42.844930"><ele>75.3</ele><time>2024-08-29T18:48:25Z</time></trkpt>
			<trkpt lat="56.162190" lon="42.846030"><ele>75.2</ele><time>2024-08-29T18:48:32Z</time></trkpt>
			<trkpt lat="56.162200" lon="42.847110"><ele>74.9</ele><time>2024-08-29T18:48:38Z</time></trkpt>
			<trkpt lat="56.161910" lon="42.847810"><ele>74.7</ele><time>2024-08-29T18:48:44Z</time></trkpt>
			<trkpt lat="56.161420" lon="42.848530"><ele>74.5</ele><time>2024-08-29T18:48:51Z</time></trkpt>
			<trkpt lat="56.161340" lon="42.849090"><ele>74.5</ele><time>2024-08-29T18:48:57Z</time></trkpt>
			<trkpt lat="56.161440" lon="42.849500"><ele>74.5</ele><time>2024-08-29T18:49:03Z</time></trkpt>
			<trkpt lat="56.161340" lon="42.849090"><ele>74.5</ele><time>2024-08-29T18:49:20Z</time></trkpt>
			<trkpt lat="56.161420" lon="42.848530"><ele>74.4</ele><time>2024-08-29T18:49:28Z</time></trkpt>
			<trkpt lat="56.161910" lon="42.847810"><ele>74.6</ele><time>2024-08-29T18:49:36Z</time></trkpt>
			<trkpt lat="56.162200" lon="42.847110"><ele>74.9</ele><time>2024-08-29T18:49:44Z</time></trkpt>
			<trkpt lat="56.162190" lon="42.846030"><ele>75.2</ele><time>2024-08-29T18:49:52Z</time></trkpt>
			<trkpt lat="56.161850" lon="42.844930"><ele>75.5</ele><time>2024-08-29T18:50:01Z</time></trkpt>
			<trkpt lat="56.161810" lon="42.844350"><ele>75.5</ele><time>2024-08-29T18:50:09Z</time></trkpt>
			<trkpt lat="56.161560" lon="42.844150"><ele>75.6</ele><time>2024-08-29T18:50:17Z</time></trkpt>
			<trkpt lat="56.161500" lon="42.845230"><ele>75.7</ele><time>2024-08-29T18:50:25Z</time></trkpt>
			<trkpt lat="56.161370" lon="42.846320"><ele>75.2</ele><time>2024-08-29T18:50:33Z</time></trkpt>
			<trkpt lat="56.161120" lon="42.847660"><ele>73.5</ele><time>2024-08-29T18:50:42Z</time></trkpt>
			<trkpt lat="56.160800" lon="42.848660"><ele>72.1</ele><time>2024-08-29T18:50:50Z</time></trkpt>
			<trkpt lat="56.159980" lon="42.850830"><ele>74.0</ele><time>2024-08-29T18:51:06Z</time></trkpt>
			<trkpt lat="56.159410" lon="42.851700"><ele>74.8</ele><time>2024-08-29T18:51:14Z</time></trkpt>
			<trkpt lat="56.158690" lon="42.852480"><ele>74.7</ele><time>2024-08-29T18:51:34Z</time></trkpt>
			<trkpt lat="56.157310" lon="42.853730"><ele>75.7</ele><time>2024-08-29T18:51:40Z</time></trkpt>
			<trkpt lat="56.151440" lon="42.859270"><ele>83.7</ele><time>2024-08-29T18:51:51Z</time></trkpt>
			<trkpt lat="56.141580" lon="42.868300"><ele>82.1</ele><time>2024-08-29T18:52:03Z</time></trkpt>
			<trkpt lat="56.137010" lon="42.872360"><ele>83.2</ele><time>2024-08-29T18:52:14Z</time></trkpt>
			<trkpt lat="56.136060" lon="42.873100"><ele>81.2</ele><time>2024-08-29T18:52:26Z</time></trkpt>
			<trkpt lat="56.134750" lon="42.873740"><ele>79.1</ele><time>2024-08-29T18:52:37Z</time></trkpt>
			<trkpt lat="56.134030" lon="42.873930"><ele>79.9</ele><time>2024-08-29T18:52:43Z</time></trkpt>
			<trkpt lat="56.132510" lon="42.874050"><ele>81.0</ele><time>2024-08-29T18:52:55Z</time></trkpt>
			<trkpt lat="56.128680" lon="42.873730"><ele>78.8</ele><time>2024-08-29T18:53:00Z</time></trkpt>
			<trkpt lat="56.123360" lon="42.873000"><ele>81.2</ele><time>2024-08-29T18:53:12Z</time></trkpt>
			<trkpt lat="56.119050" lon="42.872500"><ele>85.5</ele><time>2024-08-29T18:53:23Z</time></trkpt>
			<trkpt lat="56.109300" lon="42.871270"><ele>83.9</ele><time>2024-08-29T18:53:46Z</time></trkpt>
			<trkpt lat="56.095920" lon="42.869650"><ele>92.7</ele><time>2024-08-29T18:54:15Z</time></trkpt>
			<trkpt lat="56.067800" lon="42.866660"><ele>100.0</ele><time>2024-08-29T18:54:55Z</time></trkpt>
			<trkpt lat="56.064960" lon="42.866320"><ele>100.0</ele><time>2024-08-29T18:55:01Z</time></trkpt>
			<trkpt lat="56.062920" lon="42.866120"><ele>100.5</ele><time>2024-08-29T18:55:07Z</time></trkpt>
			<trkpt lat="56.058130" lon="42.865580"><ele>99.5</ele><time>2024-08-29T18:55:13Z</time></trkpt>
			<trkpt lat="56.056840" lon="42.865340"><ele>97.1</ele><time>2024-08-29T18:55:18Z</time></trkpt>
			<trkpt lat="56.051790" lon="42.864620"><ele>100.9</ele><time>2024-08-29T18:55:24Z</time></trkpt>
			<trkpt lat="56.035450" lon="42.862040"><ele>96.6</ele><time>2024-08-29T18:55:47Z</time></trkpt>
			<trkpt lat="56.026300" lon="42.860670"><ele>97.1</ele><time>2024-08-29T18:56:10Z</time></trkpt>
			<trkpt lat="56.025020" lon="42.860440"><ele>98.4</ele><time>2024-08-29T18:56:16Z</time></trkpt>
			<trkpt lat="56.023440" lon="42.860260"><ele>97.5</ele><time>2024-08-29T18:56:22Z</time></trkpt>
			<trkpt lat="56.021650" lon="42.860240"><ele>97.3</ele><time>2024-08-29T18:56:27Z</time></trkpt>
			<trkpt lat="56.019240" lon="42.860000"><ele>97.3</ele><time>2024-08-29T18:56:39Z</time></trkpt>
			<trkpt lat="56.017440" lon="42.859770"><ele>96.9</ele><time>2024-08-29T18:56:45Z</time></trkpt>
			<trkpt lat="56.013690" lon="42.859210"><ele>90.9</ele><time>2024-08-29T18:56:50Z</time></trkpt>
			<trkpt lat="56.011180" lon="42.858790"><ele>95.2</ele><time>2024-08-29T18:56:56Z</time></trkpt>
			<trkpt lat="56.010330" lon="42.858810"><ele>96.1</ele><time>2024-08-29T18:57:02Z</time></trkpt>
			<trkpt lat="56.009820" lon="42.858990"><ele>96.3</ele><time>2024-08-29T18:57:08Z</time></trkpt>
			<trkpt lat="56.009100" lon="42.859420"><ele>96.5</ele><time>2024-08-29T18:57:13Z</time></trkpt>
			<trkpt lat="56.007840" lon="42.860300"><ele>96.1</ele><time>2024-08-29T18:57:19Z</time></trkpt>
			<trkpt lat="56.007420" lon="42.860450"><ele>95.8</ele><time>2024-08-29T18:57:25Z</time></trkpt>
			<trkpt lat="56.006910" lon="42.860430"><ele>95.0</ele><time>2024-08-29T18:57:36Z</time></trkpt>
			<trkpt lat="56.004890" lon="42.859980"><ele>93.6</ele><time>2024-08-29T18:57:42Z</time></trkpt>
			<trkpt lat="56.003810" lon="42.859900"><ele>94.0</ele><time>2024-08-29T18:57:59Z</time></trkpt>
			<trkpt lat="56.003110" lon="42.860020"><ele>91.9</ele><time>2024-08-29T18:58:05Z</time></trkpt>
			<trkpt lat="56.002550" lon="42.860390"><ele>90.0</ele><time>2024-08-29T18:58:11Z</time></trkpt>
			<trkpt lat="56.001690" lon="42.861640"><ele>87.3</ele><time>2024-08-29T18:58:17Z</time></trkpt>
			<trkpt lat="56.000890" lon="42.863260"><ele>84.9</ele><time>2024-08-29T18:58:22Z</time></trkpt>
			<trkpt lat="56.000290" lon="42.864910"><ele>85.4</ele><time>2024-08-29T18:58:34Z</time></trkpt>
			<trkpt lat="55.999000" lon="42.868880"><ele>85.7</ele><time>2024-08-29T18:58:45Z</time></trkpt>
			<trkpt lat="55.998510" lon="42.871330"><ele>84.9</ele><time>2024-08-29T18:58:51Z</time></trkpt>
			<trkpt lat="55.998290" lon="42.872730"><ele>84.9</ele><time>2024-08-29T18:58:57Z</time></trkpt>
			<trkpt lat="55.998110" lon="42.874620"><ele>85.3</ele><time>2024-08-29T18:59:08Z</time></trkpt>
			<trkpt lat="55.998040" lon="42.875960"><ele>85.9</ele><time>2024-08-29T18:59:14Z</time></trkpt>
			<trkpt lat="55.998000" lon="42.877880"><ele>86.9</ele><time>2024-08-29T18:59:20Z</time></trkpt>
			<trkpt lat="55.998030" lon="42.879710"><ele>85.1</ele><time>2024-08-29T18:59:26Z</time></trkpt>
			<trkpt lat="55.998870" lon="42.894960"><ele>83.5</ele><time>2024-08-29T18:59:43Z</time></trkpt>
			<trkpt lat="55.999100" lon="42.897860"><ele>84.8</ele><time>2024-08-29T18:59:54Z</time></trkpt>
			<trkpt lat="55.999260" lon="42.899220"><ele>85.3</ele><time>2024-08-29T19:00:00Z</time></trkpt>
			<trkpt lat="55.999470" lon="42.900630"><ele>85.8</ele><time>2024-08-29T19:00:06Z</time></trkpt>
			<trkpt lat="55.999960" lon="42.903100"><ele>86.7</ele><time>2024-08-29T19:00:17Z</time></trkpt>
			<trkpt lat="56.000500" lon="42.905280"><ele>88.4</ele><time>2024-08-29T19:00:29Z</time></trkpt>
			<trkpt lat="56.000980" lon="42.906780"><ele>90.4</ele><time>2024-08-29T19:00:35Z</time></trkpt>
			<trkpt lat="56.001900" lon="42.909070"><ele>93.0</ele><time>2024-08-29T19:00:46Z</time></trkpt>
			<trkpt lat="56.002520" lon="42.910440"><ele>94.9</ele><time>2024-08-29T19:00:52Z</time></trkpt>
			<trkpt lat="56.003080" lon="42.911590"><ele>96.6</ele><time>2024-08-29T19:00:58Z</time></trkpt>
			<trkpt lat="56.004290" lon="42.913790"><ele>98.9</ele><time>2024-08-29T19:01:03Z</time></trkpt>
			<trkpt lat="56.005490" lon="42.916140"><ele>101.4</ele><time>2024-08-29T19:01:15Z</time></trkpt>
			<trkpt lat="56.007440" lon="42.920300"><ele>105.9</ele><time>2024-08-29T19:01:32Z</time></trkpt>
			<trkpt lat="56.008050" lon="42.921710"><ele>106.4</ele><time>2024-08-29T19:01:38Z</time></trkpt>
			<trkpt lat="56.009290" lon="42.924970"><ele>105.2</ele><time>2024-08-29T19:01:49Z</time></trkpt>
			<trkpt lat="56.010150" lon="42.927370"><ele>105.9</ele><time>2024-08-29T19:01:55Z</time></trkpt>
			<trkpt lat="56.012920" lon="42.935450"><ele>107.6</ele><time>2024-08-29T19:02:07Z</time></trkpt>
			<trkpt lat="56.013620" lon="42.937990"><ele>107.1</ele><time>2024-08-29T19:02:18Z</time></trkpt>
			<trkpt lat="56.014150" lon="42.940370"><ele>106.5</ele><time>2024-08-29T19:02:24Z</time></trkpt>
			<trkpt lat="56.014390" lon="42.941970"><ele>106.0</ele><time>2024-08-29T19:02:35Z</time></trkpt>
			<trkpt lat="56.014670" lon="42.944930"><ele>104.3</ele><time>2024-08-29T19:02:47Z</time></trkpt>
			<trkpt lat="56.014730" lon="42.946020"><ele>104.2</ele><time>2024-08-29T19:02:53Z</time></trkpt>
			<trkpt lat="56.014800" lon="42.949080"><ele>104.2</ele><time>2024-08-29T19:03:04Z</time></trkpt>
			<trkpt lat="56.014780" lon="42.950990"><ele>104.6</ele><time>2024-08-29T19:03:16Z</time></trkpt>
			<trkpt lat="56.014650" lon="42.953170"><ele>103.9</ele><time>2024-08-29T19:03:21Z</time></trkpt>
			<trkpt lat="56.014180" lon="42.957720"><ele>97.7</ele><time>2024-08-29T19:03:39Z</time></trkpt>
			<trkpt lat="56.012820" lon="42.969200"><ele>104.4</ele><time>2024-08-29T19:04:07Z</time></trkpt>
			<trkpt lat="56.012440" lon="42.971900"><ele>105.4</ele><time>2024-08-29T19:04:13Z</time></trkpt>
			<trkpt lat="56.012180" lon="42.973440"><ele>106.8</ele><time>2024-08-29T19:04:25Z</time></trkpt>
			<trkpt lat="56.011720" lon="42.975720"><ele>105.3</ele><time>2024-08-29T19:04:36Z</time></trkpt>
			<trkpt lat="56.011280" lon="42.977440"><ele>103.9</ele><time>2024-08-29T19:04:48Z</time></trkpt>
			<trkpt lat="56.011100" lon="42.977970"><ele>104.4</ele><time>2024-08-29T19:04:53Z</time></trkpt>
			<trkpt lat="56.010090" lon="42.979980"><ele>106.2</ele><time>2024-08-29T19:05:05Z</time></trkpt>
			<trkpt lat="56.009830" lon="42.980560"><ele>106.8</ele><time>2024-08-29T19:05:11Z</time></trkpt>
			<trkpt lat="56.006770" lon="42.986590"><ele>100.8</ele><time>2024-08-29T19:05:34Z</time></trkpt>
			<trkpt lat="56.002170" lon="42.995600"><ele>91.4</ele><time>2024-08-29T19:06:14Z</time></trkpt>
			<trkpt lat="56.001570" lon="42.996680"><ele>90.2</ele><time>2024-08-29T19:06:20Z</time></trkpt>
			<trkpt lat="55.999530" lon="43.000710"><ele>88.2</ele><time>2024-08-29T19:07:00Z</time></trkpt>
			<trkpt lat="55.998290" lon="43.003200"><ele>87.2</ele><time>2024-08-29T19:07:17Z</time></trkpt>
			<trkpt lat="55.997830" lon="43.004190"><ele>86.8</ele><time>2024-08-29T19:07:29Z</time></trkpt>
			<trkpt lat="55.997570" lon="43.005020"><ele>86.7</ele><time>2024-08-29T19:07:40Z</time></trkpt>
			<trkpt lat="55.996240" lon="43.010340"><ele>87.1</ele><time>2024-08-29T19:08:26Z</time></trkpt>
			<trkpt lat="55.995740" lon="43.012550"><ele>88.6</ele><time>2024-08-29T19:08:32Z</time></trkpt>
			<trkpt lat="55.995750" lon="43.012810"><ele>88.8</ele><time>2024-08-29T19:08:38Z</time></trkpt>
			<trkpt lat="55.995520" lon="43.013470"><ele>88.9</ele><time>2024-08-29T19:08:55Z</time></trkpt>
			<trkpt lat="55.995140" lon="43.014320"><ele>89.1</ele><time>2024-08-29T19:09:01Z</time></trkpt>
			<trkpt lat="55.994760" lon="43.015300"><ele>89.3</ele><time>2024-08-29T19:09:18Z</time></trkpt>
			<trkpt lat="55.994770" lon="43.015690"><ele>89.3</ele><time>2024-08-29T19:09:35Z</time></trkpt>
			<trkpt lat="55.995230" lon="43.017000"><ele>89.1</ele><time>2024-08-29T19:09:58Z</time></trkpt>
			<trkpt lat="55.995430" lon="43.017700"><ele>89.0</ele><time>2024-08-29T19:10:04Z</time></trkpt>
			<trkpt lat="55.995530" lon="43.018390"><ele>88.9</ele><time>2024-08-29T19:10:15Z</time></trkpt>
			<trkpt lat="55.995590" lon="43.020430"><ele>88.9</ele><time>2024-08-29T19:10:33Z</time></trkpt>
			<trkpt lat="55.995430" lon="43.021610"><ele>88.9</ele><time>2024-08-29T19:10:50Z</time></trkpt>
			<trkpt lat="55.995340" lon="43.024050"><ele>86.0</ele><time>2024-08-29T19:11:07Z</time></trkpt>
			<trkpt lat="55.995350" lon="43.025380"><ele>85.1</ele><time>2024-08-29T19:11:19Z</time></trkpt>
			<trkpt lat="55.995450" lon="43.027150"><ele>85.7</ele><time>2024-08-29T19:11:30Z</time></trkpt>
			<trkpt lat="55.995540" lon="43.027600"><ele>85.9</ele><time>2024-08-29T19:11:36Z</time></trkpt>
			<trkpt lat="55.995780" lon="43.028450"><ele>86.1</ele><time>2024-08-29T19:11:47Z</time></trkpt>
			<trkpt lat="55.996040" lon="43.029640"><ele>86.3</ele><time>2024-08-29T19:11:53Z</time></trkpt>
			<trkpt lat="55.996290" lon="43.031000"><ele>86.4</ele><time>2024-08-29T19:12:10Z</time></trkpt>
			<trkpt lat="55.996330" lon="43.031150"><ele>86.4</ele><time>2024-08-29T19:12:16Z</time></trkpt>
			<trkpt lat="55.996630" lon="43.031710"><ele>87.2</ele><time>2024-08-29T19:12:33Z</time></trkpt>
			<trkpt lat="55.996740" lon="43.032060"><ele>87.7</ele><time>2024-08-29T19:12:45Z</time></trkpt>
			<trkpt lat="55.996760" lon="43.032290"><ele>87.9</ele><time>2024-08-29T19:12:56Z</time></trkpt>
			<trkpt lat="55.996590" lon="43.034410"><ele>89.9</ele><time>2024-08-29T19:13:13Z</time></trkpt>
			<trkpt lat="55.996420" lon="43.036010"><ele>89.7</ele><time>2024-08-29T19:13:19Z</time></trkpt>
			<trkpt lat="55.996360" lon="43.037760"><ele>89.6</ele><time>2024-08-29T19:13:36Z</time></trkpt>
			<trkpt lat="55.996320" lon="43.038150"><ele>89.7</ele><time>2024-08-29T19:13:42Z</time></trkpt>
			<trkpt lat="55.996040" lon="43.039280"><ele>89.8</ele><time>2024-08-29T19:13:59Z</time></trkpt>
			<trkpt lat="55.995390" lon="43.041480"><ele>90.1</ele><time>2024-08-29T19:14:11Z</time></trkpt>
			<trkpt lat="55.995250" lon="43.041850"><ele>90.1</ele><time>2024-08-29T19:14:22Z</time></trkpt>
			<trkpt lat="55.995140" lon="43.042020"><ele>90.1</ele><time>2024-08-29T19:14:28Z</time></trkpt>
			<trkpt lat="55.994940" lon="43.042200"><ele>90.2</ele><time>2024-08-29T19:14:34Z</time></trkpt>
			<trkpt lat="55.994340" lon="43.042600"><ele>89.5</ele><time>2024-08-29T19:14:45Z</time></trkpt>
			<trkpt lat="55.994200" lon="43.042730"><ele>88.6</ele><time>2024-08-29T19:14:51Z</time></trkpt>
			<trkpt lat="55.993980" lon="43.043090"><ele>86.8</ele><time>2024-08-29T19:15:03Z</time></trkpt>
			<trkpt lat="55.993640" lon="43.043810"><ele>83.6</ele><time>2024-08-29T19:15:20Z</time></trkpt>
			<trkpt lat="55.993150" lon="43.044600"><ele>79.6</ele><time>2024-08-29T19:15:26Z</time></trkpt>
			<trkpt lat="55.992330" lon="43.045680"><ele>77.1</ele><time>2024-08-29T19:15:37Z</time></trkpt>
			<trkpt lat="55.991980" lon="43.045960"><ele>76.3</ele><time>2024-08-29T19:15:49Z</time></trkpt>
			<trkpt lat="55.991830" lon="43.046000"><ele>76.0</ele><time>2024-08-29T19:15:54Z</time></trkpt>
			<trkpt lat="55.991540" lon="43.045990"><ele>75.4</ele><time>2024-08-29T19:16:00Z</time></trkpt>
			<trkpt lat="55.991240" lon="43.045810"><ele>74.5</ele><time>2024-08-29T19:16:12Z</time></trkpt>
			<trkpt lat="55.989620" lon="43.043960"><ele>69.7</ele><time>2024-08-29T19:16:52Z</time></trkpt>
			<trkpt lat="55.989440" lon="43.043870"><ele>69.6</ele><time>2024-08-29T19:16:58Z</time></trkpt>
			<trkpt lat="55.989260" lon="43.043860"><ele>69.5</ele><time>2024-08-29T19:17:03Z</time></trkpt>
			<trkpt lat="55.989090" lon="43.043900"><ele>69.5</ele><time>2024-08-29T19:17:09Z</time></trkpt>
			<trkpt lat="55.986810" lon="43.045510"><ele>69.0</ele><time>2024-08-29T19:17:15Z</time></trkpt>
			<trkpt lat="55.986150" lon="43.045880"><ele>68.9</ele><time>2024-08-29T19:17:21Z</time></trkpt>
			<trkpt lat="55.985550" lon="43.046170"><ele>68.6</ele><time>2024-08-29T19:17:26Z</time></trkpt>
			<trkpt lat="55.984380" lon="43.046730"><ele>68.3</ele><time>2024-08-29T19:17:32Z</time></trkpt>
			<trkpt lat="55.982790" lon="43.047390"><ele>68.4</ele><time>2024-08-29T19:17:38Z</time></trkpt>
			<trkpt lat="55.981390" lon="43.048110"><ele>67.7</ele><time>2024-08-29T19:17:49Z</time></trkpt>
			<trkpt lat="55.980840" lon="43.048440"><ele>67.8</ele><time>2024-08-29T19:17:55Z</time></trkpt>
			<trkpt lat="55.980020" lon="43.049000"><ele>68.1</ele><time>2024-08-29T19:18:01Z</time></trkpt>
			<trkpt lat="55.979520" lon="43.049360"><ele>68.2</ele><time>2024-08-29T19:18:07Z</time></trkpt>
			<trkpt lat="55.979140" lon="43.049680"><ele>68.4</ele><time>2024-08-29T19:18:12Z</time></trkpt>
			<trkpt lat="55.978320" lon="43.050550"><ele>68.9</ele><time>2024-08-29T19:18:30Z</time></trkpt>
			<trkpt lat="55.976670" lon="43.053030"><ele>69.0</ele><time>2024-08-29T19:18:47Z</time></trkpt>
			<trkpt lat="55.976090" lon="43.054200"><ele>68.4</ele><time>2024-08-29T19:18:58Z</time></trkpt>
			<trkpt lat="55.974180" lon="43.057590"><ele>68.1</ele><time>2024-08-29T19:19:10Z</time></trkpt>
			<trkpt lat="55.973670" lon="43.058680"><ele>68.5</ele><time>2024-08-29T19:19:21Z</time></trkpt>
			<trkpt lat="55.972470" lon="43.061440"><ele>68.0</ele><time>2024-08-29T19:19:33Z</time></trkpt>
			<trkpt lat="55.971680" lon="43.062830"><ele>66.3</ele><time>2024-08-29T19:20:06Z</time></trkpt>
			<trkpt lat="55.972470" lon="43.061440"><ele>67.8</ele><time>2024-08-29T19:20:39Z</time></trkpt>
			<trkpt lat="55.973670" lon="43.058680"><ele>68.5</ele><time>2024-08-29T19:20:50Z</time></trkpt>
			<trkpt lat="55.974180" lon="43.057590"><ele>68.1</ele><time>2024-08-29T19:21:02Z</time></trkpt>
			<trkpt lat="55.976090" lon="43.054200"><ele>68.4</ele><time>2024-08-29T19:21:13Z</time></trkpt>
			<trkpt lat="55.976670" lon="43.053030"><ele>69.2</ele><time>2024-08-29T19:21:25Z</time></trkpt>
			<trkpt lat="55.978320" lon="43.050550"><ele>69.0</ele><time>2024-08-29T19:21:42Z</time></trkpt>
			<trkpt lat="55.979140" lon="43.049680"><ele>68.5</ele><time>2024-08-29T19:21:59Z</time></trkpt>
			<trkpt lat="55.979520" lon="43.049360"><ele>68.3</ele><time>2024-08-29T19:22:05Z</time></trkpt>
			<trkpt lat="55.980020" lon="43.049000"><ele>68.1</ele><time>2024-08-29T19:22:10Z</time></trkpt>
			<trkpt lat="55.980840" lon="43.048440"><ele>67.8</ele><time>2024-08-29T19:22:16Z</time></trkpt>
			<trkpt lat="55.981390" lon="43.048110"><ele>67.7</ele><time>2024-08-29T19:22:22Z</time></trkpt>
			<trkpt lat="55.982790" lon="43.047390"><ele>68.4</ele><time>2024-08-29T19:22:33Z</time></trkpt>
			<trkpt lat="55.984380" lon="43.046730"><ele>68.4</ele><time>2024-08-29T19:22:39Z</time></trkpt>
			<trkpt lat="55.985550" lon="43.046170"><ele>68.7</ele><time>2024-08-29T19:22:45Z</time></trkpt>
			<trkpt lat="55.986150" lon="43.045880"><ele>69.0</ele><time>2024-08-29T19:22:50Z</time></trkpt>
			<trkpt lat="55.986810" lon="43.045510"><ele>69.2</ele><time>2024-08-29T19:22:56Z</time></trkpt>
			<trkpt lat="55.989090" lon="43.043900"><ele>69.5</ele><time>2024-08-29T19:23:02Z</time></trkpt>
			<trkpt lat="55.989260" lon="43.043860"><ele>69.6</ele><time>2024-08-29T19:23:08Z</time></trkpt>
			<trkpt lat="55.989440" lon="43.043870"><ele>69.7</ele><time>2024-08-29T19:23:13Z</time></trkpt>
			<trkpt lat="55.989620" lon="43.043960"><ele>69.7</ele><time>2024-08-29T19:23:19Z</time></trkpt>
			<trkpt lat="55.991240" lon="43.045810"><ele>74.5</ele><time>2024-08-29T19:23:59Z</time></trkpt>
			<trkpt lat="55.991540" lon="43.045990"><ele>75.4</ele><time>2024-08-29T19:24:11Z</time></trkpt>
			<trkpt lat="55.991830" lon="43.046000"><ele>76.1</ele><time>2024-08-29T19:24:16Z</time></trkpt>
			<trkpt lat="55.991980" lon="43.045960"><ele>76.4</ele><time>2024-08-29T19:24:22Z</time></trkpt>
			<trkpt lat="55.992330" lon="43.045680"><ele>77.2</ele><time>2024-08-29T19:24:33Z</time></trkpt>
			<trkpt lat="55.993150" lon="43.044600"><ele>79.3</ele><time>2024-08-29T19:24:45Z</time></trkpt>
			<trkpt lat="55.993640" lon="43.043810"><ele>83.2</ele><time>2024-08-29T19:24:51Z</time></trkpt>
			<trkpt lat="55.993980" lon="43.043090"><ele>86.4</ele><time>2024-08-29T19:25:08Z</time></trkpt>
			<trkpt lat="55.994200" lon="43.042730"><ele>88.2</ele><time>2024-08-29T19:25:19Z</time></trkpt>
			<trkpt lat="55.994340" lon="43.042600"><ele>89.2</ele><time>2024-08-29T19:25:25Z</time></trkpt>
			<trkpt lat="55.994940" lon="43.042200"><ele>90.4</ele><time>2024-08-29T19:25:36Z</time></trkpt>
			<trkpt lat="55.995140" lon="43.042020"><ele>90.3</ele><time>2024-08-29T19:25:42Z</time></trkpt>
			<trkpt lat="55.995250" lon="43.041850"><ele>90.3</ele><time>2024-08-29T19:25:48Z</time></trkpt>
			<trkpt lat="55.995390" lon="43.041480"><ele>90.2</ele><time>2024-08-29T19:25:59Z</time></trkpt>
			<trkpt lat="55.996040" lon="43.039280"><ele>89.8</ele><time>2024-08-29T19:26:11Z</time></trkpt>
			<trkpt lat="55.996320" lon="43.038150"><ele>89.7</ele><time>2024-08-29T19:26:28Z</time></trkpt>
			<trkpt lat="55.996360" lon="43.037760"><ele>89.6</ele><time>2024-08-29T19:26:34Z</time></trkpt>
			<trkpt lat="55.996420" lon="43.036010"><ele>89.6</ele><time>2024-08-29T19:26:51Z</time></trkpt>
			<trkpt lat="55.996590" lon="43.034410"><ele>89.7</ele><time>2024-08-29T19:26:57Z</time></trkpt>
			<trkpt lat="55.996760" lon="43.032290"><ele>87.9</ele><time>2024-08-29T19:27:14Z</time></trkpt>
			<trkpt lat="55.996740" lon="43.032060"><ele>87.6</ele><time>2024-08-29T19:27:25Z</time></trkpt>
			<trkpt lat="55.996630" lon="43.031710"><ele>87.2</ele><time>2024-08-29T19:27:37Z</time></trkpt>
			<trkpt lat="55.996330" lon="43.031150"><ele>86.4</ele><time>2024-08-29T19:27:54Z</time></trkpt>
			<trkpt lat="55.996290" lon="43.031000"><ele>86.2</ele><time>2024-08-29T19:28:00Z</time></trkpt>
			<trkpt lat="55.996040" lon="43.029640"><ele>85.9</ele><time>2024-08-29T19:28:17Z</time></trkpt>
			<trkpt lat="55.995780" lon="43.028450"><ele>85.6</ele><time>2024-08-29T19:28:22Z</time></trkpt>
			<trkpt lat="55.995540" lon="43.027600"><ele>85.4</ele><time>2024-08-29T19:28:34Z</time></trkpt>
			<trkpt lat="55.995450" lon="43.027150"><ele>85.4</ele><time>2024-08-29T19:28:40Z</time></trkpt>
			<trkpt lat="55.995350" lon="43.025380"><ele>85.2</ele><time>2024-08-29T19:28:51Z</time></trkpt>
			<trkpt lat="55.995340" lon="43.024050"><ele>85.9</ele><time>2024-08-29T19:29:02Z</time></trkpt>
			<trkpt lat="55.995430" lon="43.021610"><ele>88.5</ele><time>2024-08-29T19:29:20Z</time></trkpt>
			<trkpt lat="55.995590" lon="43.020430"><ele>88.8</ele><time>2024-08-29T19:29:37Z</time></trkpt>
			<trkpt lat="55.995530" lon="43.018390"><ele>89.0</ele><time>2024-08-29T19:29:54Z</time></trkpt>
			<trkpt lat="55.995430" lon="43.017700"><ele>89.1</ele><time>2024-08-29T19:30:05Z</time></trkpt>
			<trkpt lat="55.995230" lon="43.017000"><ele>89.1</ele><time>2024-08-29T19:30:11Z</time></trkpt>
			<trkpt lat="55.994770" lon="43.015690"><ele>89.1</ele><time>2024-08-29T19:30:34Z</time></trkpt>
			<trkpt lat="55.994760" lon="43.015300"><ele>89.1</ele><time>2024-08-29T19:30:51Z</time></trkpt>
			<trkpt lat="55.995140" lon="43.014320"><ele>89.1</ele><time>2024-08-29T19:31:08Z</time></trkpt>
			<trkpt lat="55.995520" lon="43.013470"><ele>89.1</ele><time>2024-08-29T19:31:14Z</time></trkpt>
			<trkpt lat="55.995750" lon="43.012810"><ele>89.0</ele><time>2024-08-29T19:31:31Z</time></trkpt>
			<trkpt lat="55.995740" lon="43.012550"><ele>89.0</ele><time>2024-08-29T19:31:37Z</time></trkpt>
			<trkpt lat="55.996240" lon="43.010340"><ele>87.2</ele><time>2024-08-29T19:31:43Z</time></trkpt>
			<trkpt lat="55.997570" lon="43.005020"><ele>86.8</ele><time>2024-08-29T19:32:29Z</time></trkpt>
			<trkpt lat="55.997830" lon="43.004190"><ele>87.0</ele><time>2024-08-29T19:32:40Z</time></trkpt>
			<trkpt lat="55.998290" lon="43.003200"><ele>87.3</ele><time>2024-08-29T19:32:51Z</time></trkpt>
			<trkpt lat="55.999530" lon="43.000710"><ele>88.1</ele><time>2024-08-29T19:33:09Z</time></trkpt>
			<trkpt lat="56.001570" lon="42.996680"><ele>90.4</ele><time>2024-08-29T19:33:49Z</time></trkpt>
			<trkpt lat="56.002170" lon="42.995600"><ele>91.5</ele><time>2024-08-29T19:33:54Z</time></trkpt>
			<trkpt lat="56.006770" lon="42.986590"><ele>100.5</ele><time>2024-08-29T19:34:34Z</time></trkpt>
			<trkpt lat="56.009830" lon="42.980560"><ele>107.0</ele><time>2024-08-29T19:34:57Z</time></trkpt>
			<trkpt lat="56.010090" lon="42.979980"><ele>106.5</ele><time>2024-08-29T19:35:03Z</time></trkpt>
			<trkpt lat="56.011100" lon="42.977970"><ele>104.6</ele><time>2024-08-29T19:35:15Z</time></trkpt>
			<trkpt lat="56.011280" lon="42.977440"><ele>104.2</ele><time>2024-08-29T19:35:20Z</time></trkpt>
			<trkpt lat="56.011720" lon="42.975720"><ele>105.2</ele><time>2024-08-29T19:35:32Z</time></trkpt>
			<trkpt lat="56.012180" lon="42.973440"><ele>106.9</ele><time>2024-08-29T19:35:43Z</time></trkpt>
			<trkpt lat="56.012440" lon="42.971900"><ele>105.5</ele><time>2024-08-29T19:35:55Z</time></trkpt>
			<trkpt lat="56.012820" lon="42.969200"><ele>104.5</ele><time>2024-08-29T19:36:00Z</time></trkpt>
			<trkpt lat="56.014180" lon="42.957720"><ele>97.9</ele><time>2024-08-29T19:36:29Z</time></trkpt>
			<trkpt lat="56.014650" lon="42.953170"><ele>104.0</ele><time>2024-08-29T19:36:46Z</time></trkpt>
			<trkpt lat="56.014780" lon="42.950990"><ele>104.7</ele><time>2024-08-29T19:36:52Z</time></trkpt>
			<trkpt lat="56.014800" lon="42.949080"><ele>104.3</ele><time>2024-08-29T19:37:03Z</time></trkpt>
			<trkpt lat="56.014730" lon="42.946020"><ele>104.2</ele><time>2024-08-29T19:37:15Z</time></trkpt>
			<trkpt lat="56.014670" lon="42.944930"><ele>104.3</ele><time>2024-08-29T19:37:20Z</time></trkpt>
			<trkpt lat="56.014390" lon="42.941970"><ele>106.0</ele><time>2024-08-29T19:37:32Z</time></trkpt>
			<trkpt lat="56.014150" lon="42.940370"><ele>106.4</ele><time>2024-08-29T19:37:43Z</time></trkpt>
			<trkpt lat="56.013620" lon="42.937990"><ele>107.0</ele><time>2024-08-29T19:37:49Z</time></trkpt>
			<trkpt lat="56.012920" lon="42.935450"><ele>107.5</ele><time>2024-08-29T19:38:00Z</time></trkpt>
			<trkpt lat="56.010150" lon="42.927370"><ele>105.8</ele><time>2024-08-29T19:38:12Z</time></trkpt>
			<trkpt lat="56.009290" lon="42.924970"><ele>105.3</ele><time>2024-08-29T19:38:18Z</time></trkpt>
			<trkpt lat="56.008050" lon="42.921710"><ele>106.6</ele><time>2024-08-29T19:38:29Z</time></trkpt>
			<trkpt lat="56.007440" lon="42.920300"><ele>105.9</ele><time>2024-08-29T19:38:35Z</time></trkpt>
			<trkpt lat="56.005490" lon="42.916140"><ele>101.5</ele><time>2024-08-29T19:38:52Z</time></trkpt>
			<trkpt lat="56.004290" lon="42.913790"><ele>98.9</ele><time>2024-08-29T19:39:03Z</time></trkpt>
			<trkpt lat="56.003080" lon="42.911590"><ele>96.7</ele><time>2024-08-29T19:39:09Z</time></trkpt>
			<trkpt lat="56.002520" lon="42.910440"><ele>94.9</ele><time>2024-08-29T19:39:15Z</time></trkpt>
			<trkpt lat="56.001900" lon="42.909070"><ele>93.0</ele><time>2024-08-29T19:39:21Z</time></trkpt>
			<trkpt lat="56.000980" lon="42.906780"><ele>90.6</ele><time>2024-08-29T19:39:32Z</time></trkpt>
			<trkpt lat="56.000500" lon="42.905280"><ele>88.7</ele><time>2024-08-29T19:39:38Z</time></trkpt>
			<trkpt lat="55.999960" lon="42.903100"><ele>86.8</ele><time>2024-08-29T19:39:49Z</time></trkpt>
			<trkpt lat="55.999470" lon="42.900630"><ele>85.9</ele><time>2024-08-29T19:40:01Z</time></trkpt>
			<trkpt lat="55.999260" lon="42.899220"><ele>85.3</ele><time>2024-08-29T19:40:06Z</time></trkpt>
			<trkpt lat="55.999100" lon="42.897860"><ele>84.8</ele><time>2024-08-29T19:40:12Z</time></trkpt>
			<trkpt lat="55.998870" lon="42.894960"><ele>83.6</ele><time>2024-08-29T19:40:24Z</time></trkpt>
			<trkpt lat="55.998030" lon="42.879710"><ele>84.9</ele><time>2024-08-29T19:40:41Z</time></trkpt>
			<trkpt lat="55.998000" lon="42.877880"><ele>87.0</ele><time>2024-08-29T19:40:46Z</time></trkpt>
			<trkpt lat="55.998040" lon="42.875960"><ele>85.8</ele><time>2024-08-29T19:40:52Z</time></trkpt>
			<trkpt lat="55.998110" lon="42.874620"><ele>85.2</ele><time>2024-08-29T19:40:58Z</time></trkpt>
			<trkpt lat="55.998290" lon="42.872730"><ele>85.1</ele><time>2024-08-29T19:41:09Z</time></trkpt>
			<trkpt lat="55.998510" lon="42.871330"><ele>85.1</ele><time>2024-08-29T19:41:15Z</time></trkpt>
			<trkpt lat="55.999000" lon="42.868880"><ele>85.7</ele><time>2024-08-29T19:41:21Z</time></trkpt>
			<trkpt lat="56.000290" lon="42.864910"><ele>85.6</ele><time>2024-08-29T19:41:32Z</time></trkpt>
			<trkpt lat="56.000890" lon="42.863260"><ele>84.9</ele><time>2024-08-29T19:41:44Z</time></trkpt>
			<trkpt lat="56.001690" lon="42.861640"><ele>87.2</ele><time>2024-08-29T19:41:49Z</time></trkpt>
			<trkpt lat="56.002550" lon="42.860390"><ele>90.0</ele><time>2024-08-29T19:41:55Z</time></trkpt>
			<trkpt lat="56.003110" lon="42.860020"><ele>91.9</ele><time>2024-08-29T19:42:01Z</time></trkpt>
			<trkpt lat="56.003810" lon="42.859900"><ele>94.1</ele><time>2024-08-29T19:42:07Z</time></trkpt>
			<trkpt lat="56.004890" lon="42.859980"><ele>93.7</ele><time>2024-08-29T19:42:24Z</time></trkpt>
			<trkpt lat="56.006910" lon="42.860430"><ele>94.7</ele><time>2024-08-29T19:42:30Z</time></trkpt>
			<trkpt lat="56.007420" lon="42.860450"><ele>95.6</ele><time>2024-08-29T19:42:41Z</time></trkpt>
			<trkpt lat="56.007840" lon="42.860300"><ele>96.0</ele><time>2024-08-29T19:42:47Z</time></trkpt>
			<trkpt lat="56.009100" lon="42.859420"><ele>96.2</ele><time>2024-08-29T19:42:52Z</time></trkpt>
			<trkpt lat="56.009820" lon="42.858990"><ele>96.1</ele><time>2024-08-29T19:42:58Z</time></trkpt>
			<trkpt lat="56.010330" lon="42.858810"><ele>95.9</ele><time>2024-08-29T19:43:04Z</time></trkpt>
			<trkpt lat="56.011180" lon="42.858790"><ele>95.3</ele><time>2024-08-29T19:43:10Z</time></trkpt>
			<trkpt lat="56.013690" lon="42.859210"><ele>90.5</ele><time>2024-08-29T19:43:15Z</time></trkpt>
			<trkpt lat="56.017440" lon="42.859770"><ele>97.0</ele><time>2024-08-29T19:43:21Z</time></trkpt>
			<trkpt lat="56.019240" lon="42.860000"><ele>97.3</ele><time>2024-08-29T19:43:27Z</time></trkpt>
			<trkpt lat="56.021650" lon="42.860240"><ele>97.3</ele><time>2024-08-29T19:43:38Z</time></trkpt>
			<trkpt lat="56.023440" lon="42.860260"><ele>97.6</ele><time>2024-08-29T19:43:44Z</time></trkpt>
			<trkpt lat="56.025020" lon="42.860440"><ele>98.4</ele><time>2024-08-29T19:43:50Z</time></trkpt>
			<trkpt lat="56.026300" lon="42.860670"><ele>97.3</ele><time>2024-08-29T19:43:55Z</time></trkpt>
			<trkpt lat="56.035450" lon="42.862040"><ele>96.8</ele><time>2024-08-29T19:44:18Z</time></trkpt>
			<trkpt lat="56.051790" lon="42.864620"><ele>101.0</ele><time>2024-08-29T19:44:41Z</time></trkpt>
			<trkpt lat="56.056840" lon="42.865340"><ele>96.9</ele><time>2024-08-29T19:44:47Z</time></trkpt>
			<trkpt lat="56.058130" lon="42.865580"><ele>99.1</ele><time>2024-08-29T19:44:53Z</time></trkpt>
			<trkpt lat="56.062920" lon="42.866120"><ele>100.6</ele><time>2024-08-29T19:44:58Z</time></trkpt>
			<trkpt lat="56.064960" lon="42.866320"><ele>99.8</ele><time>2024-08-29T19:45:04Z</time></trkpt>
			<trkpt lat="56.067800" lon="42.866660"><ele>100.0</ele><time>2024-08-29T19:45:10Z</time></trkpt>
			<trkpt lat="56.095920" lon="42.869650"><ele>92.8</ele><time>2024-08-29T19:45:50Z</time></trkpt>
			<trkpt lat="56.109300" lon="42.871270"><ele>84.2</ele><time>2024-08-29T19:46:18Z</time></trkpt>
			<trkpt lat="56.119050" lon="42.872500"><ele>85.3</ele><time>2024-08-29T19:46:41Z</time></trkpt>
			<trkpt lat="56.123360" lon="42.873000"><ele>81.3</ele><time>2024-08-29T19:46:53Z</time></trkpt>
			<trkpt lat="56.128680" lon="42.873730"><ele>78.8</ele><time>2024-08-29T19:47:04Z</time></trkpt>
			<trkpt lat="56.132510" lon="42.874050"><ele>81.1</ele><time>2024-08-29T19:47:10Z</time></trkpt>
			<trkpt lat="56.134030" lon="42.873930"><ele>80.0</ele><time>2024-08-29T19:47:21Z</time></trkpt>
			<trkpt lat="56.134750" lon="42.873740"><ele>79.5</ele><time>2024-08-29T19:47:27Z</time></trkpt>
			<trkpt lat="56.136060" lon="42.873100"><ele>81.1</ele><time>2024-08-29T19:47:39Z</time></trkpt>
			<trkpt lat="56.137010" lon="42.872360"><ele>83.1</ele><time>2024-08-29T19:47:50Z</time></trkpt>
			<trkpt lat="56.141580" lon="42.868300"><ele>82.1</ele><time>2024-08-29T19:48:01Z</time></trkpt>
			<trkpt lat="56.151440" lon="42.859270"><ele>83.8</ele><time>2024-08-29T19:48:13Z</time></trkpt>
			<trkpt lat="56.157310" lon="42.853730"><ele>75.7</ele><time>2024-08-29T19:48:24Z</time></trkpt>
			<trkpt lat="56.158690" lon="42.852480"><ele>74.7</ele><time>2024-08-29T19:48:30Z</time></trkpt>
			<trkpt lat="56.159410" lon="42.851700"><ele>74.8</ele><time>2024-08-29T19:48:36Z</time></trkpt>
			<trkpt lat="56.159980" lon="42.850830"><ele>74.3</ele><time>2024-08-29T19:48:42Z</time></trkpt>
			<trkpt lat="56.160800" lon="42.848660"><ele>72.5</ele><time>2024-08-29T19:48:53Z</time></trkpt>
			<trkpt lat="56.161120" lon="42.847660"><ele>73.6</ele><time>2024-08-29T19:48:59Z</time></trkpt>
			<trkpt lat="56.161410" lon="42.846020"><ele>75.4</ele><time>2024-08-29T19:49:10Z</time></trkpt>
			<trkpt lat="56.161500" lon="42.845230"><ele>75.7</ele><time>2024-08-29T19:49:30Z</time></trkpt>
			<trkpt lat="56.161560" lon="42.844150"><ele>75.6</ele><time>2024-08-29T19:49:40Z</time></trkpt>
			<trkpt lat="56.161810" lon="42.844350"><ele>75.5</ele><time>2024-08-29T19:49:50Z</time></trkpt>
			<trkpt lat="56.161850" lon="42.844930"><ele>75.5</ele><time>2024-08-29T19:50:00Z</time></trkpt>
			<trkpt lat="56.162190" lon="42.846030"><ele>75.2</ele><time>2024-08-29T19:50:10Z</time></trkpt>
			<trkpt lat="56.162200" lon="42.847110"><ele>74.8</ele><time>2024-08-29T19:50:20Z</time></trkpt>
			<trkpt lat="56.161910" lon="42.847810"><ele>74.4</ele><time>2024-08-29T19:50:29Z</time></trkpt>
			<trkpt lat="56.161420" lon="42.848530"><ele>74.2</ele><time>2024-08-29T19:50:39Z</time></trkpt>
			<trkpt lat="56.161340" lon="42.849090"><ele>74.3</ele><time>2024-08-29T19:50:49Z</time></trkpt>
			<trkpt lat="56.161450" lon="42.849530"><ele>74.4</ele><time>2024-08-29T19:51:09Z</time></trkpt>
			<trkpt lat="56.161340" lon="42.849090"><ele>74.5</ele><time>2024-08-29T19:51:39Z</time></trkpt>
			<trkpt lat="56.161420" lon="42.848530"><ele>74.6</ele><time>2024-08-29T19:51:49Z</time></trkpt>
			<trkpt lat="56.161910" lon="42.847810"><ele>74.8</ele><time>2024-08-29T19:51:59Z</time></trkpt>
			<trkpt lat="56.162200" lon="42.847110"><ele>75.0</ele><time>2024-08-29T19:52:09Z</time></trkpt>
			<trkpt lat="56.162190" lon="42.846030"><ele>75.2</ele><time>2024-08-29T19:52:19Z</time></trkpt>
			<trkpt lat="56.161850" lon="42.844930"><ele>75.3</ele><time>2024-08-29T19:52:29Z</time></trkpt>
			<trkpt lat="56.161810" lon="42.844350"><ele>75.1</ele><time>2024-08-29T19:52:39Z</time></trkpt>
			<trkpt lat="56.161560" lon="42.844150"><ele>74.9</ele><time>2024-08-29T19:52:49Z</time></trkpt>
			<trkpt lat="56.161590" lon="42.843710"><ele>74.7</ele><time>2024-08-29T19:52:59Z</time></trkpt>
			<trkpt lat="56.161600" lon="42.841530"><ele>74.1</ele><time>2024-08-29T19:53:25Z</time></trkpt>
			<trkpt lat="56.161550" lon="42.840220"><ele>74.0</ele><time>2024-08-29T19:53:33Z</time></trkpt>
			<trkpt lat="56.161430" lon="42.839230"><ele>73.9</ele><time>2024-08-29T19:53:42Z</time></trkpt>
			<trkpt lat="56.160480" lon="42.833040"><ele>74.9</ele><time>2024-08-29T19:53:50Z</time></trkpt>
			<trkpt lat="56.160400" lon="42.831840"><ele>75.2</ele><time>2024-08-29T19:53:58Z</time></trkpt>
			<trkpt lat="56.160400" lon="42.830730"><ele>75.5</ele><time>2024-08-29T19:54:14Z</time></trkpt>
			<trkpt lat="56.160510" lon="42.829850"><ele>75.7</ele><time>2024-08-29T19:54:23Z</time></trkpt>
			<trkpt lat="56.161250" lon="42.827160"><ele>76.7</ele><time>2024-08-29T19:54:31Z</time></trkpt>
			<trkpt lat="56.161440" lon="42.826670"><ele>76.9</ele><time>2024-08-29T19:54:39Z</time></trkpt>
			<trkpt lat="56.162870" lon="42.830440"><ele>75.8</ele><time>2024-08-29T19:54:47Z</time></trkpt>
			<trkpt lat="56.163020" lon="42.830670"><ele>75.7</ele><time>2024-08-29T19:55:12Z</time></trkpt>
			<trkpt lat="56.163210" lon="42.830720"><ele>75.6</ele><time>2024-08-29T19:55:36Z</time></trkpt>
			<trkpt lat="56.163350" lon="42.830660"><ele>75.5</ele><time>2024-08-29T19:55:53Z</time></trkpt>
			<trkpt lat="56.164130" lon="42.829480"><ele>75.2</ele><time>2024-08-29T19:56:09Z</time></trkpt>
			<trkpt lat="56.164190" lon="42.829250"><ele>75.2</ele><time>2024-08-29T19:56:18Z</time></trkpt>
			<trkpt lat="56.164200" lon="42.829070"><ele>75.2</ele><time>2024-08-29T19:56:26Z</time></trkpt>
			<trkpt lat="56.163690" lon="42.821280"><ele>74.2</ele><time>2024-08-29T19:56:34Z</time></trkpt>
			<trkpt lat="56.163680" lon="42.820510"><ele>74.1</ele><time>2024-08-29T19:56:42Z</time></trkpt>
			<trkpt lat="56.163760" lon="42.819770"><ele>74.4</ele><time>2024-08-29T19:56:50Z</time></trkpt>
			<trkpt lat="56.163940" lon="42.819400"><ele>74.7</ele><time>2024-08-29T19:56:59Z</time></trkpt>
			<trkpt lat="56.172580" lon="42.805560"><ele>86.9</ele><time>2024-08-29T19:57:23Z</time></trkpt>
			<trkpt lat="56.172820" lon="42.805030"><ele>87.1</ele><time>2024-08-29T19:57:31Z</time></trkpt>
			<trkpt lat="56.173010" lon="42.804490"><ele>87.2</ele><time>2024-08-29T19:57:40Z</time></trkpt>
			<trkpt lat="56.174630" lon="42.796890"><ele>84.0</ele><time>2024-08-29T19:57:56Z</time></trkpt>
			<trkpt lat="56.174720" lon="42.796570"><ele>83.5</ele><time>2024-08-29T19:58:04Z</time></trkpt>
			<trkpt lat="56.174860" lon="42.796310"><ele>83.0</ele><time>2024-08-29T19:58:13Z</time></trkpt>
			<trkpt lat="56.175060" lon="42.796100"><ele>82.5</ele><time>2024-08-29T19:58:21Z</time></trkpt>
			<trkpt lat="56.175850" lon="42.795440"><ele>81.4</ele><time>2024-08-29T19:58:37Z</time></trkpt>
			<trkpt lat="56.176280" lon="42.795010"><ele>80.9</ele><time>2024-08-29T19:58:45Z</time></trkpt>
			<trkpt lat="56.176950" lon="42.794180"><ele>80.4</ele><time>2024-08-29T19:58:54Z</time></trkpt>
			<trkpt lat="56.180190" lon="42.789320"><ele>82.6</ele><time>2024-08-29T19:59:02Z</time></trkpt>
			<trkpt lat="56.180420" lon="42.788870"><ele>82.4</ele><time>2024-08-29T19:59:18Z</time></trkpt>
			<trkpt lat="56.180730" lon="42.788030"><ele>82.1</ele><time>2024-08-29T19:59:35Z</time></trkpt>
			<trkpt lat="56.185360" lon="42.773630"><ele>81.5</ele><time>2024-08-29T19:59:51Z</time></trkpt>
			<trkpt lat="56.185880" lon="42.772120"><ele>81.5</ele><time>2024-08-29T19:59:59Z</time></trkpt>
			<trkpt lat="56.188310" lon="42.764480"><ele>79.9</ele><time>2024-08-29T20:00:16Z</time></trkpt>
			<trkpt lat="56.188490" lon="42.763450"><ele>79.9</ele><time>2024-08-29T20:00:32Z</time></trkpt>
			<trkpt lat="56.188960" lon="42.756840"><ele>79.0</ele><time>2024-08-29T20:00:57Z</time></trkpt>
			<trkpt lat="56.189090" lon="42.755410"><ele>79.6</ele><time>2024-08-29T20:01:05Z</time></trkpt>
			<trkpt lat="56.189300" lon="42.753920"><ele>78.2</ele><time>2024-08-29T20:01:21Z</time></trkpt>
			<trkpt lat="56.189600" lon="42.752600"><ele>76.6</ele><time>2024-08-29T20:01:38Z</time></trkpt>
			<trkpt lat="56.190320" lon="42.749980"><ele>79.4</ele><time>2024-08-29T20:01:54Z</time></trkpt>
			<trkpt lat="56.194340" lon="42.733510"><ele>81.3</ele><time>2024-08-29T20:03:00Z</time></trkpt>
			<trkpt lat="56.194380" lon="42.733020"><ele>81.5</ele><time>2024-08-29T20:03:08Z</time></trkpt>
			<trkpt lat="56.194530" lon="42.728570"><ele>82.8</ele><time>2024-08-29T20:03:57Z</time></trkpt>
			<trkpt lat="56.195440" lon="42.709320"><ele>85.4</ele><time>2024-08-29T20:05:28Z</time></trkpt>
			<trkpt lat="56.195620" lon="42.706060"><ele>84.0</ele><time>2024-08-29T20:06:17Z</time></trkpt>
			<trkpt lat="56.195710" lon="42.705660"><ele>83.7</ele><time>2024-08-29T20:06:33Z</time></trkpt>
			<trkpt lat="56.195960" lon="42.705050"><ele>83.1</ele><time>2024-08-29T20:06:50Z</time></trkpt>
			<trkpt lat="56.196140" lon="42.704690"><ele>82.8</ele><time>2024-08-29T20:06:58Z</time></trkpt>
			<trkpt lat="56.196470" lon="42.704190"><ele>82.2</ele><time>2024-08-29T20:07:06Z</time></trkpt>
			<trkpt lat="56.197940" lon="42.702620"><ele>79.8</ele><time>2024-08-29T20:07:39Z</time></trkpt>
			<trkpt lat="56.201140" lon="42.712820"><ele>75.8</ele><time>2024-08-29T20:08:28Z</time></trkpt>
			<trkpt lat="56.202850" lon="42.717950"><ele>76.4</ele><time>2024-08-29T20:08:45Z</time></trkpt>
			<trkpt lat="56.206040" lon="42.727980"><ele>77.2</ele><time>2024-08-29T20:08:53Z</time></trkpt>
			<trkpt lat="56.215450" lon="42.757150"><ele>74.2</ele><time>2024-08-29T20:09:18Z</time></trkpt>
			<trkpt lat="56.218660" lon="42.766900"><ele>76.6</ele><time>2024-08-29T20:09:26Z</time></trkpt>
			<trkpt lat="56.220500" lon="42.772600"><ele>76.4</ele><time>2024-08-29T20:09:34Z</time></trkpt>
			<trkpt lat="56.221310" lon="42.775380"><ele>77.8</ele><time>2024-08-29T20:09:42Z</time></trkpt>
			<trkpt lat="56.223660" lon="42.782710"><ele>76.9</ele><time>2024-08-29T20:10:07Z</time></trkpt>
			<trkpt lat="56.224600" lon="42.785560"><ele>77.4</ele><time>2024-08-29T20:10:15Z</time></trkpt>
			<trkpt lat="56.226030" lon="42.789420"><ele>74.3</ele><time>2024-08-29T20:10:32Z</time></trkpt>
			<trkpt lat="56.227990" lon="42.795470"><ele>74.8</ele><time>2024-08-29T20:11:13Z</time></trkpt>
			<trkpt lat="56.229060" lon="42.798880"><ele>79.6</ele><time>2024-08-29T20:11:37Z</time></trkpt>
			<trkpt lat="56.231910" lon="42.809270"><ele>78.2</ele><time>2024-08-29T20:12:18Z</time></trkpt>
			<trkpt lat="56.242340" lon="42.847840"><ele>76.6</ele><time>2024-08-29T20:13:32Z</time></trkpt>
			<trkpt lat="56.256770" lon="42.900970"><ele>90.7</ele><time>2024-08-29T20:14:30Z</time></trkpt>
			<trkpt lat="56.248420" lon="42.910170"><ele>88.5</ele><time>2024-08-29T20:15:02Z</time></trkpt>
			<trkpt lat="56.239790" lon="42.919770"><ele>83.0</ele><time>2024-08-29T20:15:19Z</time></trkpt>
			<trkpt lat="56.236330" lon="42.923680"><ele>79.8</ele><time>2024-08-29T20:16:00Z</time></trkpt>
			<trkpt lat="56.234620" lon="42.925550"><ele>82.0</ele><time>2024-08-29T20:16:19Z</time></trkpt>
			<trkpt lat="56.234370" lon="42.925890"><ele>82.4</ele><time>2024-08-29T20:16:27Z</time></trkpt>
			<trkpt lat="56.234200" lon="42.926200"><ele>82.5</ele><time>2024-08-29T20:16:34Z</time></trkpt>
			<trkpt lat="56.233260" lon="42.928680"><ele>83.0</ele><time>2024-08-29T20:16:56Z</time></trkpt>
			<trkpt lat="56.233130" lon="42.928890"><ele>83.1</ele><time>2024-08-29T20:17:00Z</time></trkpt>
			<trkpt lat="56.231860" lon="42.930440"><ele>83.6</ele><time>2024-08-29T20:17:19Z</time></trkpt>
			<trkpt lat="56.231560" lon="42.931000"><ele>83.2</ele><time>2024-08-29T20:17:26Z</time></trkpt>
			<trkpt lat="56.231060" lon="42.932310"><ele>82.5</ele><time>2024-08-29T20:17:30Z</time></trkpt>
			<trkpt lat="56.230310" lon="42.934620"><ele>81.5</ele><time>2024-08-29T20:17:41Z</time></trkpt>
			<trkpt lat="56.230100" lon="42.935510"><ele>81.2</ele><time>2024-08-29T20:17:48Z</time></trkpt>
			<trkpt lat="56.229590" lon="42.938330"><ele>81.1</ele><time>2024-08-29T20:17:59Z</time></trkpt>
			<trkpt lat="56.226960" lon="42.948810"><ele>80.8</ele><time>2024-08-29T20:18:25Z</time></trkpt>
			<trkpt lat="56.226630" lon="42.950480"><ele>81.7</ele><time>2024-08-29T20:18:33Z</time></trkpt>
			<trkpt lat="56.225060" lon="42.959890"><ele>83.1</ele><time>2024-08-29T20:18:47Z</time></trkpt>
			<trkpt lat="56.224830" lon="42.961520"><ele>82.6</ele><time>2024-08-29T20:18:55Z</time></trkpt>
			<trkpt lat="56.224750" lon="42.963280"><ele>81.9</ele><time>2024-08-29T20:19:02Z</time></trkpt>
			<trkpt lat="56.224420" lon="42.963220"><ele>81.6</ele><time>2024-08-29T20:19:10Z</time></trkpt>
			<trkpt lat="56.223670" lon="42.962890"><ele>82.1</ele><time>2024-08-29T20:19:24Z</time></trkpt>
			<trkpt lat="56.223340" lon="42.962790"><ele>82.3</ele><time>2024-08-29T20:19:36Z</time></trkpt>
			<trkpt lat="56.222670" lon="42.962630"><ele>82.8</ele><time>2024-08-29T20:19:47Z</time></trkpt>
			<trkpt lat="56.222460" lon="42.962600"><ele>82.9</ele><time>2024-08-29T20:19:50Z</time></trkpt>
			<trkpt lat="56.222210" lon="42.962610"><ele>82.7</ele><time>2024-08-29T20:19:58Z</time></trkpt>
			<trkpt lat="56.221910" lon="42.962770"><ele>82.5</ele><time>2024-08-29T20:20:05Z</time></trkpt>
			<trkpt lat="56.221700" lon="42.963020"><ele>82.4</ele><time>2024-08-29T20:20:13Z</time></trkpt>
			<trkpt lat="56.221530" lon="42.963390"><ele>82.2</ele><time>2024-08-29T20:20:20Z</time></trkpt>
			<trkpt lat="56.221340" lon="42.963960"><ele>82.0</ele><time>2024-08-29T20:20:27Z</time></trkpt>
			<trkpt lat="56.220210" lon="42.970720"><ele>82.3</ele><time>2024-08-29T20:20:38Z</time></trkpt>
			<trkpt lat="56.219560" lon="42.974930"><ele>82.9</ele><time>2024-08-29T20:20:42Z</time></trkpt>
			<trkpt lat="56.218980" lon="42.977740"><ele>82.4</ele><time>2024-08-29T20:20:53Z</time></trkpt>
			<trkpt lat="56.217580" lon="42.987340"><ele>83.4</ele><time>2024-08-29T20:20:57Z</time></trkpt>
			<trkpt lat="56.216600" lon="42.993340"><ele>81.8</ele><time>2024-08-29T20:21:01Z</time></trkpt>
			<trkpt lat="56.216450" lon="42.994050"><ele>81.6</ele><time>2024-08-29T20:21:04Z</time></trkpt>
			<trkpt lat="56.216230" lon="42.994830"><ele>81.3</ele><time>2024-08-29T20:21:08Z</time></trkpt>
			<trkpt lat="56.214420" lon="42.999990"><ele>79.3</ele><time>2024-08-29T20:21:12Z</time></trkpt>
			<trkpt lat="56.214220" lon="43.000310"><ele>79.1</ele><time>2024-08-29T20:21:16Z</time></trkpt>
			<trkpt lat="56.213920" lon="43.000540"><ele>78.9</ele><time>2024-08-29T20:21:19Z</time></trkpt>
			<trkpt lat="56.211310" lon="43.001540"><ele>77.5</ele><time>2024-08-29T20:21:27Z</time></trkpt>
			<trkpt lat="56.209420" lon="43.002900"><ele>78.1</ele><time>2024-08-29T20:21:34Z</time></trkpt>
			<trkpt lat="56.209030" lon="43.003380"><ele>78.2</ele><time>2024-08-29T20:21:38Z</time></trkpt>
			<trkpt lat="56.208690" lon="43.003950"><ele>78.3</ele><time>2024-08-29T20:21:41Z</time></trkpt>
			<trkpt lat="56.208410" lon="43.004660"><ele>79.2</ele><time>2024-08-29T20:21:45Z</time></trkpt>
			<trkpt lat="56.208210" lon="43.005380"><ele>80.5</ele><time>2024-08-29T20:21:49Z</time></trkpt>
			<trkpt lat="56.208160" lon="43.006020"><ele>81.6</ele><time>2024-08-29T20:21:53Z</time></trkpt>
			<trkpt lat="56.208740" lon="43.013990"><ele>84.0</ele><time>2024-08-29T20:22:00Z</time></trkpt>
			<trkpt lat="56.208840" lon="43.016530"><ele>86.0</ele><time>2024-08-29T20:22:04Z</time></trkpt>
			<trkpt lat="56.208940" lon="43.021070"><ele>84.0</ele><time>2024-08-29T20:22:07Z</time></trkpt>
			<trkpt lat="56.208890" lon="43.022340"><ele>80.7</ele><time>2024-08-29T20:22:15Z</time></trkpt>
			<trkpt lat="56.208780" lon="43.022830"><ele>79.3</ele><time>2024-08-29T20:22:18Z</time></trkpt>
			<trkpt lat="56.207710" lon="43.026450"><ele>76.8</ele><time>2024-08-29T20:22:26Z</time></trkpt>
			<trkpt lat="56.207360" lon="43.027220"><ele>77.5</ele><time>2024-08-29T20:22:33Z</time></trkpt>
			<trkpt lat="56.207040" lon="43.027810"><ele>78.0</ele><time>2024-08-29T20:22:37Z</time></trkpt>
			<trkpt lat="56.206830" lon="43.028080"><ele>78.3</ele><time>2024-08-29T20:22:41Z</time></trkpt>
			<trkpt lat="56.206630" lon="43.028210"><ele>78.6</ele><time>2024-08-29T20:22:44Z</time></trkpt>
			<trkpt lat="56.206460" lon="43.028580"><ele>78.9</ele><time>2024-08-29T20:22:52Z</time></trkpt>
			<trkpt lat="56.206510" lon="43.033030"><ele>80.2</ele><time>2024-08-29T20:22:59Z</time></trkpt>
			<trkpt lat="56.206510" lon="43.037630"><ele>79.8</ele><time>2024-08-29T20:23:03Z</time></trkpt>
			<trkpt lat="56.206480" lon="43.037930"><ele>79.7</ele><time>2024-08-29T20:23:07Z</time></trkpt>
			<trkpt lat="56.206270" lon="43.038680"><ele>79.4</ele><time>2024-08-29T20:23:18Z</time></trkpt>
			<trkpt lat="56.206270" lon="43.038910"><ele>79.1</ele><time>2024-08-29T20:23:21Z</time></trkpt>
			<trkpt lat="56.206480" lon="43.041340"><ele>76.1</ele><time>2024-08-29T20:23:29Z</time></trkpt>
			<trkpt lat="56.206510" lon="43.042730"><ele>74.9</ele><time>2024-08-29T20:23:36Z</time></trkpt>
			<trkpt lat="56.206640" lon="43.044510"><ele>73.8</ele><time>2024-08-29T20:23:52Z</time></trkpt>
			<trkpt lat="56.207040" lon="43.048460"><ele>92.3</ele><time>2024-08-29T20:24:03Z</time></trkpt>
			<trkpt lat="56.207090" lon="43.048730"><ele>92.0</ele><time>2024-08-29T20:24:15Z</time></trkpt>
			<trkpt lat="56.207170" lon="43.048910"><ele>91.8</ele><time>2024-08-29T20:24:26Z</time></trkpt>
			<trkpt lat="56.207250" lon="43.049000"><ele>91.6</ele><time>2024-08-29T20:24:32Z</time></trkpt>
			<trkpt lat="56.207730" lon="43.049180"><ele>90.8</ele><time>2024-08-29T20:24:38Z</time></trkpt>
			<trkpt lat="56.207870" lon="43.049290"><ele>90.6</ele><time>2024-08-29T20:24:49Z</time></trkpt>
			<trkpt lat="56.207910" lon="43.049360"><ele>90.5</ele><time>2024-08-29T20:24:55Z</time></trkpt>
			<trkpt lat="56.208160" lon="43.050410"><ele>89.4</ele><time>2024-08-29T20:25:07Z</time></trkpt>
			<trkpt lat="56.208260" lon="43.050670"><ele>88.9</ele><time>2024-08-29T20:25:13Z</time></trkpt>
			<trkpt lat="56.209000" lon="43.052180"><ele>85.4</ele><time>2024-08-29T20:25:24Z</time></trkpt>
			<trkpt lat="56.209070" lon="43.052520"><ele>84.7</ele><time>2024-08-29T20:25:36Z</time></trkpt>
			<trkpt lat="56.209070" lon="43.052780"><ele>84.3</ele><time>2024-08-29T20:25:42Z</time></trkpt>
			<trkpt lat="56.209060" lon="43.053080"><ele>83.8</ele><time>2024-08-29T20:25:47Z</time></trkpt>
			<trkpt lat="56.208980" lon="43.053430"><ele>84.2</ele><time>2024-08-29T20:25:59Z</time></trkpt>
			<trkpt lat="56.208540" lon="43.054320"><ele>86.0</ele><time>2024-08-29T20:26:05Z</time></trkpt>
			<trkpt lat="56.208050" lon="43.055420"><ele>88.2</ele><time>2024-08-29T20:26:16Z</time></trkpt>
			<trkpt lat="56.207800" lon="43.056210"><ele>88.9</ele><time>2024-08-29T20:26:28Z</time></trkpt>
			<trkpt lat="56.207720" lon="43.056740"><ele>88.9</ele><time>2024-08-29T20:26:34Z</time></trkpt>
			<trkpt lat="56.207260" lon="43.060930"><ele>83.1</ele><time>2024-08-29T20:26:51Z</time></trkpt>
			<trkpt lat="56.207020" lon="43.064850"><ele>79.8</ele><time>2024-08-29T20:27:14Z</time></trkpt>
			<trkpt lat="56.206620" lon="43.068760"><ele>80.1</ele><time>2024-08-29T20:27:38Z</time></trkpt>
			<trkpt lat="56.206320" lon="43.070900"><ele>80.9</ele><time>2024-08-29T20:27:55Z</time></trkpt>
			<trkpt lat="56.206330" lon="43.071660"><ele>81.2</ele><time>2024-08-29T20:28:12Z</time></trkpt>
			<trkpt lat="56.206560" lon="43.072380"><ele>80.9</ele><time>2024-08-29T20:28:30Z</time></trkpt>
			<trkpt lat="56.206680" lon="43.072620"><ele>80.6</ele><time>2024-08-29T20:28:35Z</time></trkpt>
			<trkpt lat="56.206860" lon="43.072830"><ele>80.4</ele><time>2024-08-29T20:28:47Z</time></trkpt>
			<trkpt lat="56.207070" lon="43.072900"><ele>80.2</ele><time>2024-08-29T20:28:53Z</time></trkpt>
			<trkpt lat="56.207720" lon="43.072800"><ele>79.4</ele><time>2024-08-29T20:29:04Z</time></trkpt>
			<trkpt lat="56.209060" lon="43.072700"><ele>77.5</ele><time>2024-08-29T20:29:16Z</time></trkpt>
			<trkpt lat="56.209250" lon="43.072780"><ele>77.2</ele><time>2024-08-29T20:29:28Z</time></trkpt>
			<trkpt lat="56.209340" lon="43.072850"><ele>77.1</ele><time>2024-08-29T20:29:33Z</time></trkpt>
			<trkpt lat="56.209420" lon="43.072980"><ele>76.9</ele><time>2024-08-29T20:29:39Z</time></trkpt>
			<trkpt lat="56.209520" lon="43.073340"><ele>76.6</ele><time>2024-08-29T20:29:51Z</time></trkpt>
			<trkpt lat="56.209940" lon="43.076540"><ele>77.0</ele><time>2024-08-29T20:30:08Z</time></trkpt>
			<trkpt lat="56.210190" lon="43.078100"><ele>76.3</ele><time>2024-08-29T20:30:14Z</time></trkpt>
			<trkpt lat="56.210670" lon="43.080620"><ele>75.4</ele><time>2024-08-29T20:30:20Z</time></trkpt>
			<trkpt lat="56.210900" lon="43.081640"><ele>75.5</ele><time>2024-08-29T20:30:31Z</time></trkpt>
			<trkpt lat="56.211020" lon="43.081980"><ele>75.5</ele><time>2024-08-29T20:30:37Z</time></trkpt>
			<trkpt lat="56.211260" lon="43.082460"><ele>75.5</ele><time>2024-08-29T20:30:49Z</time></trkpt>
			<trkpt lat="56.212650" lon="43.084450"><ele>75.4</ele><time>2024-08-29T20:31:06Z</time></trkpt>
			<trkpt lat="56.212880" lon="43.084700"><ele>75.4</ele><time>2024-08-29T20:31:12Z</time></trkpt>
			<trkpt lat="56.213140" lon="43.085140"><ele>75.5</ele><time>2024-08-29T20:31:24Z</time></trkpt>
			<trkpt lat="56.213340" lon="43.085670"><ele>75.7</ele><time>2024-08-29T20:31:29Z</time></trkpt>
			<trkpt lat="56.213590" lon="43.086670"><ele>75.9</ele><time>2024-08-29T20:31:47Z</time></trkpt>
			<trkpt lat="56.213620" lon="43.088170"><ele>75.9</ele><time>2024-08-29T20:31:58Z</time></trkpt>
			<trkpt lat="56.213640" lon="43.094560"><ele>76.8</ele><time>2024-08-29T20:32:04Z</time></trkpt>
			<trkpt lat="56.213560" lon="43.104070"><ele>76.6</ele><time>2024-08-29T20:32:16Z</time></trkpt>
			<trkpt lat="56.213510" lon="43.104880"><ele>77.4</ele><time>2024-08-29T20:32:21Z</time></trkpt>
			<trkpt lat="56.213040" lon="43.109220"><ele>82.3</ele><time>2024-08-29T20:32:27Z</time></trkpt>
			<trkpt lat="56.212980" lon="43.110060"><ele>83.2</ele><time>2024-08-29T20:32:33Z</time></trkpt>
			<trkpt lat="56.212770" lon="43.117740"><ele>85.3</ele><time>2024-08-29T20:32:39Z</time></trkpt>
			<trkpt lat="56.212780" lon="43.118230"><ele>84.5</ele><time>2024-08-29T20:32:45Z</time></trkpt>
			<trkpt lat="56.212860" lon="43.118770"><ele>83.6</ele><time>2024-08-29T20:32:50Z</time></trkpt>
			<trkpt lat="56.213230" lon="43.120470"><ele>81.8</ele><time>2024-08-29T20:32:56Z</time></trkpt>
			<trkpt lat="56.213320" lon="43.120940"><ele>82.7</ele><time>2024-08-29T20:33:02Z</time></trkpt>
			<trkpt lat="56.213370" lon="43.121430"><ele>83.6</ele><time>2024-08-29T20:33:08Z</time></trkpt>
			<trkpt lat="56.213360" lon="43.121950"><ele>84.6</ele><time>2024-08-29T20:33:14Z</time></trkpt>
			<trkpt lat="56.213200" lon="43.124310"><ele>86.4</ele><time>2024-08-29T20:33:19Z</time></trkpt>
			<trkpt lat="56.213190" lon="43.124850"><ele>85.9</ele><time>2024-08-29T20:33:25Z</time></trkpt>
			<trkpt lat="56.213250" lon="43.126890"><ele>83.8</ele><time>2024-08-29T20:33:37Z</time></trkpt>
			<trkpt lat="56.213220" lon="43.128820"><ele>81.3</ele><time>2024-08-29T20:33:43Z</time></trkpt>
			<trkpt lat="56.213030" lon="43.130860"><ele>79.1</ele><time>2024-08-29T20:34:00Z</time></trkpt>
			<trkpt lat="56.213070" lon="43.132460"><ele>77.9</ele><time>2024-08-29T20:34:12Z</time></trkpt>
			<trkpt lat="56.213160" lon="43.133540"><ele>77.3</ele><time>2024-08-29T20:34:23Z</time></trkpt>
			<trkpt lat="56.215030" lon="43.143840"><ele>78.7</ele><time>2024-08-29T20:35:04Z</time></trkpt>
			<trkpt lat="56.215210" lon="43.145260"><ele>78.4</ele><time>2024-08-29T20:35:10Z</time></trkpt>
			<trkpt lat="56.215230" lon="43.145870"><ele>78.3</ele><time>2024-08-29T20:35:15Z</time></trkpt>
			<trkpt lat="56.215140" lon="43.146570"><ele>78.4</ele><time>2024-08-29T20:35:21Z</time></trkpt>
			<trkpt lat="56.214750" lon="43.148590"><ele>78.9</ele><time>2024-08-29T20:35:33Z</time></trkpt>
			<trkpt lat="56.214770" lon="43.149450"><ele>78.9</ele><time>2024-08-29T20:35:39Z</time></trkpt>
			<trkpt lat="56.214740" lon="43.150430"><ele>78.8</ele><time>2024-08-29T20:35:50Z</time></trkpt>
			<trkpt lat="56.214600" lon="43.151650"><ele>78.6</ele><time>2024-08-29T20:36:02Z</time></trkpt>
			<trkpt lat="56.214570" lon="43.152340"><ele>78.5</ele><time>2024-08-29T20:36:19Z</time></trkpt>
			<trkpt lat="56.214640" lon="43.152600"><ele>78.5</ele><time>2024-08-29T20:36:25Z</time></trkpt>
			<trkpt lat="56.215180" lon="43.152770"><ele>78.5</ele><time>2024-08-29T20:36:31Z</time></trkpt>
			<trkpt lat="56.215310" lon="43.153060"><ele>78.5</ele><time>2024-08-29T20:36:36Z</time></trkpt>
			<trkpt lat="56.215340" lon="43.153400"><ele>78.5</ele><time>2024-08-29T20:36:42Z</time></trkpt>
			<trkpt lat="56.215180" lon="43.155980"><ele>79.1</ele><time>2024-08-29T20:37:00Z</time></trkpt>
			<trkpt lat="56.215340" lon="43.156340"><ele>79.3</ele><time>2024-08-29T20:37:05Z</time></trkpt>
			<trkpt lat="56.215450" lon="43.156430"><ele>79.4</ele><time>2024-08-29T20:37:11Z</time></trkpt>
			<trkpt lat="56.215650" lon="43.156850"><ele>79.7</ele><time>2024-08-29T20:37:17Z</time></trkpt>
			<trkpt lat="56.216100" lon="43.158820"><ele>80.4</ele><time>2024-08-29T20:37:29Z</time></trkpt>
			<trkpt lat="56.216360" lon="43.159770"><ele>80.8</ele><time>2024-08-29T20:37:34Z</time></trkpt>
			<trkpt lat="56.216500" lon="43.160030"><ele>80.9</ele><time>2024-08-29T20:37:46Z</time></trkpt>
			<trkpt lat="56.216750" lon="43.160260"><ele>81.0</ele><time>2024-08-29T20:37:52Z</time></trkpt>
			<trkpt lat="56.216850" lon="43.160400"><ele>81.0</ele><time>2024-08-29T20:37:58Z</time></trkpt>
			<trkpt lat="56.217010" lon="43.160820"><ele>81.0</ele><time>2024-08-29T20:38:09Z</time></trkpt>
			<trkpt lat="56.217510" lon="43.164100"><ele>81.6</ele><time>2024-08-29T20:38:21Z</time></trkpt>
			<trkpt lat="56.217670" lon="43.164700"><ele>81.9</ele><time>2024-08-29T20:38:32Z</time></trkpt>
			<trkpt lat="56.217810" lon="43.164990"><ele>82.1</ele><time>2024-08-29T20:38:38Z</time></trkpt>
			<trkpt lat="56.218300" lon="43.165330"><ele>82.5</ele><time>2024-08-29T20:38:50Z</time></trkpt>
			<trkpt lat="56.218410" lon="43.165450"><ele>82.6</ele><time>2024-08-29T20:38:56Z</time></trkpt>
			<trkpt lat="56.218560" lon="43.165820"><ele>82.5</ele><time>2024-08-29T20:39:01Z</time></trkpt>
			<trkpt lat="56.219140" lon="43.168050"><ele>81.6</ele><time>2024-08-29T20:39:30Z</time></trkpt>
			<trkpt lat="56.219620" lon="43.169590"><ele>80.5</ele><time>2024-08-29T20:39:48Z</time></trkpt>
			<trkpt lat="56.220110" lon="43.171380"><ele>79.2</ele><time>2024-08-29T20:40:05Z</time></trkpt>
			<trkpt lat="56.222010" lon="43.176910"><ele>79.3</ele><time>2024-08-29T20:40:40Z</time></trkpt>
			<trkpt lat="56.223200" lon="43.180040"><ele>79.9</ele><time>2024-08-29T20:41:03Z</time></trkpt>
			<trkpt lat="56.223110" lon="43.180640"><ele>79.6</ele><time>2024-08-29T20:41:15Z</time></trkpt>
			<trkpt lat="56.222890" lon="43.181410"><ele>79.3</ele><time>2024-08-29T20:41:26Z</time></trkpt>
			<trkpt lat="56.222840" lon="43.182850"><ele>78.5</ele><time>2024-08-29T20:41:38Z</time></trkpt>
			<trkpt lat="56.222730" lon="43.183170"><ele>77.7</ele><time>2024-08-29T20:41:44Z</time></trkpt>
			<trkpt lat="56.221320" lon="43.185620"><ele>71.0</ele><time>2024-08-29T20:42:01Z</time></trkpt>
			<trkpt lat="56.221080" lon="43.186250"><ele>70.8</ele><time>2024-08-29T20:42:07Z</time></trkpt>
			<trkpt lat="56.220940" lon="43.186890"><ele>70.7</ele><time>2024-08-29T20:42:13Z</time></trkpt>
			<trkpt lat="56.220960" lon="43.187730"><ele>70.5</ele><time>2024-08-29T20:42:18Z</time></trkpt>
			<trkpt lat="56.221190" lon="43.189500"><ele>72.8</ele><time>2024-08-29T20:42:24Z</time></trkpt>
			<trkpt lat="56.221530" lon="43.191210"><ele>75.5</ele><time>2024-08-29T20:42:36Z</time></trkpt>
			<trkpt lat="56.222010" lon="43.193950"><ele>76.4</ele><time>2024-08-29T20:42:42Z</time></trkpt>
			<trkpt lat="56.224780" lon="43.201080"><ele>76.4</ele><time>2024-08-29T20:43:11Z</time></trkpt>
			<trkpt lat="56.224830" lon="43.201430"><ele>76.4</ele><time>2024-08-29T20:43:16Z</time></trkpt>
			<trkpt lat="56.224840" lon="43.201770"><ele>76.4</ele><time>2024-08-29T20:43:22Z</time></trkpt>
			<trkpt lat="56.224740" lon="43.202600"><ele>76.3</ele><time>2024-08-29T20:43:34Z</time></trkpt>
			<trkpt lat="56.224680" lon="43.205550"><ele>77.5</ele><time>2024-08-29T20:43:39Z</time></trkpt>
			<trkpt lat="56.224240" lon="43.210810"><ele>81.4</ele><time>2024-08-29T20:43:57Z</time></trkpt>
			<trkpt lat="56.224120" lon="43.211860"><ele>82.3</ele><time>2024-08-29T20:44:08Z</time></trkpt>
			<trkpt lat="56.223870" lon="43.214810"><ele>82.2</ele><time>2024-08-29T20:44:20Z</time></trkpt>
			<trkpt lat="56.223030" lon="43.225710"><ele>85.9</ele><time>2024-08-29T20:44:55Z</time></trkpt>
			<trkpt lat="56.222860" lon="43.232310"><ele>91.1</ele><time>2024-08-29T20:45:01Z</time></trkpt>
			<trkpt lat="56.222710" lon="43.236880"><ele>90.0</ele><time>2024-08-29T20:45:18Z</time></trkpt>
			<trkpt lat="56.222650" lon="43.237780"><ele>90.8</ele><time>2024-08-29T20:45:24Z</time></trkpt>
			<trkpt lat="56.222500" lon="43.238700"><ele>91.3</ele><time>2024-08-29T20:45:30Z</time></trkpt>
			<trkpt lat="56.222170" lon="43.239740"><ele>90.8</ele><time>2024-08-29T20:45:35Z</time></trkpt>
			<trkpt lat="56.222030" lon="43.240360"><ele>90.4</ele><time>2024-08-29T20:45:41Z</time></trkpt>
			<trkpt lat="56.221930" lon="43.241180"><ele>90.0</ele><time>2024-08-29T20:45:53Z</time></trkpt>
			<trkpt lat="56.221820" lon="43.244560"><ele>92.4</ele><time>2024-08-29T20:45:59Z</time></trkpt>
			<trkpt lat="56.221970" lon="43.249690"><ele>93.7</ele><time>2024-08-29T20:46:16Z</time></trkpt>
			<trkpt lat="56.221910" lon="43.250420"><ele>93.7</ele><time>2024-08-29T20:46:22Z</time></trkpt>
			<trkpt lat="56.220360" lon="43.259600"><ele>98.5</ele><time>2024-08-29T20:46:33Z</time></trkpt>
			<trkpt lat="56.218260" lon="43.269760"><ele>98.9</ele><time>2024-08-29T20:46:39Z</time></trkpt>
			<trkpt lat="56.218180" lon="43.270500"><ele>99.2</ele><time>2024-08-29T20:46:45Z</time></trkpt>
			<trkpt lat="56.218170" lon="43.271020"><ele>100.1</ele><time>2024-08-29T20:46:51Z</time></trkpt>
			<trkpt lat="56.218790" lon="43.280180"><ele>97.7</ele><time>2024-08-29T20:47:20Z</time></trkpt>
			<trkpt lat="56.218740" lon="43.280860"><ele>98.5</ele><time>2024-08-29T20:47:25Z</time></trkpt>
			<trkpt lat="56.217670" lon="43.287800"><ele>100.9</ele><time>2024-08-29T20:48:12Z</time></trkpt>
			<trkpt lat="56.217010" lon="43.289920"><ele>100.5</ele><time>2024-08-29T20:48:35Z</time></trkpt>
			<trkpt lat="56.216930" lon="43.290440"><ele>100.5</ele><time>2024-08-29T20:48:41Z</time></trkpt>
			<trkpt lat="56.216890" lon="43.290750"><ele>100.6</ele><time>2024-08-29T20:48:47Z</time></trkpt>
			<trkpt lat="56.216890" lon="43.292550"><ele>100.8</ele><time>2024-08-29T20:48:52Z</time></trkpt>
			<trkpt lat="56.216950" lon="43.295600"><ele>101.6</ele><time>2024-08-29T20:48:58Z</time></trkpt>
			<trkpt lat="56.216920" lon="43.295910"><ele>101.7</ele><time>2024-08-29T20:49:04Z</time></trkpt>
			<trkpt lat="56.216440" lon="43.297500"><ele>102.0</ele><time>2024-08-29T20:49:16Z</time></trkpt>
			<trkpt lat="56.216410" lon="43.297740"><ele>102.1</ele><time>2024-08-29T20:49:21Z</time></trkpt>
			<trkpt lat="56.216420" lon="43.297870"><ele>102.1</ele><time>2024-08-29T20:49:27Z</time></trkpt>
			<trkpt lat="56.217550" lon="43.299680"><ele>100.3</ele><time>2024-08-29T20:49:45Z</time></trkpt>
			<trkpt lat="56.218210" lon="43.300320"><ele>98.9</ele><time>2024-08-29T20:50:02Z</time></trkpt>
			<trkpt lat="56.218680" lon="43.300930"><ele>99.4</ele><time>2024-08-29T20:50:08Z</time></trkpt>
			<trkpt lat="56.219070" lon="43.301770"><ele>100.2</ele><time>2024-08-29T20:50:14Z</time></trkpt>
			<trkpt lat="56.219300" lon="43.302450"><ele>100.8</ele><time>2024-08-29T20:50:19Z</time></trkpt>
			<trkpt lat="56.219980" lon="43.305340"><ele>102.3</ele><time>2024-08-29T20:50:31Z</time></trkpt>
			<trkpt lat="56.220360" lon="43.306770"><ele>101.5</ele><time>2024-08-29T20:50:48Z</time></trkpt>
			<trkpt lat="56.221210" lon="43.309340"><ele>98.3</ele><time>2024-08-29T20:51:11Z</time></trkpt>
			<trkpt lat="56.221430" lon="43.310620"><ele>97.1</ele><time>2024-08-29T20:51:29Z</time></trkpt>
			<trkpt lat="56.221550" lon="43.311530"><ele>96.3</ele><time>2024-08-29T20:51:35Z</time></trkpt>
			<trkpt lat="56.221550" lon="43.311790"><ele>96.0</ele><time>2024-08-29T20:51:46Z</time></trkpt>
			<trkpt lat="56.221600" lon="43.311860"><ele>95.9</ele><time>2024-08-29T20:51:52Z</time></trkpt>
			<trkpt lat="56.221960" lon="43.314520"><ele>94.0</ele><time>2024-08-29T20:52:09Z</time></trkpt>
			<trkpt lat="56.222060" lon="43.315740"><ele>93.1</ele><time>2024-08-29T20:52:21Z</time></trkpt>
			<trkpt lat="56.222160" lon="43.318620"><ele>91.8</ele><time>2024-08-29T20:52:33Z</time></trkpt>
			<trkpt lat="56.222130" lon="43.320390"><ele>95.3</ele><time>2024-08-29T20:52:38Z</time></trkpt>
			<trkpt lat="56.222190" lon="43.321250"><ele>96.9</ele><time>2024-08-29T20:52:44Z</time></trkpt>
			<trkpt lat="56.222200" lon="43.321920"><ele>98.1</ele><time>2024-08-29T20:52:50Z</time></trkpt>
			<trkpt lat="56.222190" lon="43.323990"><ele>101.3</ele><time>2024-08-29T20:52:56Z</time></trkpt>
			<trkpt lat="56.222160" lon="43.324530"><ele>102.1</ele><time>2024-08-29T20:53:02Z</time></trkpt>
			<trkpt lat="56.221260" lon="43.328370"><ele>107.1</ele><time>2024-08-29T20:53:31Z</time></trkpt>
			<trkpt lat="56.221120" lon="43.329440"><ele>107.4</ele><time>2024-08-29T20:53:42Z</time></trkpt>
			<trkpt lat="56.221070" lon="43.330350"><ele>107.7</ele><time>2024-08-29T20:53:48Z</time></trkpt>
			<trkpt lat="56.219940" lon="43.388250"><ele>93.3</ele><time>2024-08-29T20:54:23Z</time></trkpt>
			<trkpt lat="56.220050" lon="43.388550"><ele>93.1</ele><time>2024-08-29T20:54:34Z</time></trkpt>
			<trkpt lat="56.220220" lon="43.388730"><ele>92.9</ele><time>2024-08-29T20:54:46Z</time></trkpt>
			<trkpt lat="56.220630" lon="43.388780"><ele>92.4</ele><time>2024-08-29T20:54:52Z</time></trkpt>
			<trkpt lat="56.220730" lon="43.388820"><ele>92.3</ele><time>2024-08-29T20:54:57Z</time></trkpt>
			<trkpt lat="56.220800" lon="43.388890"><ele>92.2</ele><time>2024-08-29T20:55:03Z</time></trkpt>
			<trkpt lat="56.220860" lon="43.389100"><ele>92.1</ele><time>2024-08-29T20:55:15Z</time></trkpt>
			<trkpt lat="56.220860" lon="43.389550"><ele>91.7</ele><time>2024-08-29T20:55:26Z</time></trkpt>
			<trkpt lat="56.220820" lon="43.389820"><ele>91.4</ele><time>2024-08-29T20:55:38Z</time></trkpt>
			<trkpt lat="56.220720" lon="43.389940"><ele>91.2</ele><time>2024-08-29T20:55:50Z</time></trkpt>
			<trkpt lat="56.218130" lon="43.389670"><ele>87.5</ele><time>2024-08-29T20:55:55Z</time></trkpt>
			<trkpt lat="56.217880" lon="43.389620"><ele>87.2</ele><time>2024-08-29T20:56:01Z</time></trkpt>
			<trkpt lat="56.217780" lon="43.389480"><ele>87.1</ele><time>2024-08-29T20:56:13Z</time></trkpt>
			<trkpt lat="56.217770" lon="43.389380"><ele>87.0</ele><time>2024-08-29T20:56:19Z</time></trkpt>
			<trkpt lat="56.217780" lon="43.389260"><ele>86.9</ele><time>2024-08-29T20:56:24Z</time></trkpt>
			<trkpt lat="56.217850" lon="43.389110"><ele>86.9</ele><time>2024-08-29T20:56:36Z</time></trkpt>
			<trkpt lat="56.217990" lon="43.389010"><ele>87.1</ele><time>2024-08-29T20:56:42Z</time></trkpt>
			<trkpt lat="56.222550" lon="43.389510"><ele>93.3</ele><time>2024-08-29T20:56:53Z</time></trkpt>
			<trkpt lat="56.226120" lon="43.389680"><ele>95.4</ele><time>2024-08-29T20:56:59Z</time></trkpt>
			<trkpt lat="56.226390" lon="43.389790"><ele>95.6</ele><time>2024-08-29T20:57:05Z</time></trkpt>
			<trkpt lat="56.226480" lon="43.389870"><ele>95.7</ele><time>2024-08-29T20:57:11Z</time></trkpt>
			<trkpt lat="56.226590" lon="43.390160"><ele>95.8</ele><time>2024-08-29T20:57:17Z</time></trkpt>
			<trkpt lat="56.226710" lon="43.390340"><ele>95.9</ele><time>2024-08-29T20:57:22Z</time></trkpt>
			<trkpt lat="56.226800" lon="43.390630"><ele>96.0</ele><time>2024-08-29T20:57:34Z</time></trkpt>
			<trkpt lat="56.226840" lon="43.390930"><ele>95.9</ele><time>2024-08-29T20:57:40Z</time></trkpt>
			<trkpt lat="56.226840" lon="43.392510"><ele>95.3</ele><time>2024-08-29T20:57:51Z</time></trkpt>
			<trkpt lat="56.226790" lon="43.406940"><ele>93.6</ele><time>2024-08-29T20:58:26Z</time></trkpt>
			<trkpt lat="56.226840" lon="43.407360"><ele>93.4</ele><time>2024-08-29T20:58:32Z</time></trkpt>
			<trkpt lat="56.235140" lon="43.450050"><ele>90.5</ele><time>2024-08-29T21:03:48Z</time></trkpt>
			<trkpt lat="56.234220" lon="43.450630"><ele>89.6</ele><time>2024-08-29T21:04:02Z</time></trkpt>
			<trkpt lat="56.234220" lon="43.450600"><ele>89.6</ele><time>2024-08-29T21:04:09Z</time></trkpt>
			<trkpt lat="56.234220" lon="43.450630"><ele>89.6</ele><time>2024-08-29T21:04:22Z</time></trkpt>
			<trkpt lat="56.233490" lon="43.451100"><ele>88.7</ele><time>2024-08-29T21:04:29Z</time></trkpt>
			<trkpt lat="56.229260" lon="43.453790"><ele>81.8</ele><time>2024-08-29T21:05:26Z</time></trkpt>
			<trkpt lat="56.229090" lon="43.452960"><ele>80.9</ele><time>2024-08-29T21:05:44Z</time></trkpt>
			<trkpt lat="56.228900" lon="43.453020"><ele>80.5</ele><time>2024-08-29T21:05:48Z</time></trkpt>
			<trkpt lat="56.228810" lon="43.453080"><ele>80.3</ele><time>2024-08-29T21:05:51Z</time></trkpt>
			<trkpt lat="56.228720" lon="43.453260"><ele>80.1</ele><time>2024-08-29T21:05:59Z</time></trkpt>
			<trkpt lat="56.228720" lon="43.453550"><ele>79.8</ele><time>2024-08-29T21:06:07Z</time></trkpt>
			<trkpt lat="56.228780" lon="43.453890"><ele>79.4</ele><time>2024-08-29T21:06:14Z</time></trkpt>
		</trkseg>
	</trk>
</gpx>